Wetterdaten: Mittwoch, 24.11.2021
Datum Zeit Temp. Aussen Temp. o. S. Temp +5cm Feuchte Auss Luftdruck Regen Sonnenschein Regendauer Solar Windben Empfang
24.11.2021 00:00 5,5 C 5,0 C 4,4 C 98 % 1029,2 hPa 0,0 l/m 0 min 0 min 0 W/m 0,0 km/h (0 Bft) 100,00 %
24.11.2021 00:02 5,5 C 5,0 C 4,4 C 98 % 1029,2 hPa 0,0 l/m 0 min 0 min 0 W/m 0,0 km/h (0 Bft) 100,00 %
24.11.2021 00:04 5,5 C 5,0 C 4,4 C 98 % 1029,1 hPa 0,0 l/m 0 min 0 min 0 W/m 0,0 km/h (0 Bft) 100,00 %
24.11.2021 00:08 5,5 C 5,0 C 4,4 C 98 % 1029,1 hPa 0,0 l/m 0 min 0 min 0 W/m 3,2 km/h (1 Bft) 97,85 %
24.11.2021 00:10 5,5 C 5,0 C 4,4 C 98 % 1029,1 hPa 0,0 l/m 0 min 0 min 0 W/m 3,2 km/h (1 Bft) 97,87 %
24.11.2021 00:12 5,5 C 5,0 C 4,4 C 98 % 1029,2 hPa 0,0 l/m 0 min 0 min 0 W/m 3,2 km/h (1 Bft) 100,00 %
24.11.2021 00:14 5,4 C 5,0 C 4,4 C 98 % 1029,2 hPa 0,0 l/m 0 min 0 min 0 W/m 6,4 km/h (2 Bft) 100,00 %
24.11.2021 00:16 5,4 C 5,0 C 4,4 C 98 % 1029,1 hPa 0,0 l/m 0 min 0 min 0 W/m 0,0 km/h (0 Bft) 97,87 %
24.11.2021 00:18 5,4 C 5,0 C 4,4 C 98 % 1029,1 hPa 0,0 l/m 0 min 0 min 0 W/m 3,2 km/h (1 Bft) 97,87 %
24.11.2021 00:20 5,4 C 5,0 C 4,4 C 98 % 1029,1 hPa 0,0 l/m 0 min 0 min 0 W/m 3,2 km/h (1 Bft) 97,83 %
24.11.2021 00:22 5,4 C 5,0 C 4,4 C 98 % 1029,1 hPa 0,0 l/m 0 min 0 min 0 W/m 3,2 km/h (1 Bft) 97,87 %
24.11.2021 00:24 5,4 C 5,0 C 4,4 C 98 % 1029,1 hPa 0,0 l/m 0 min 0 min 0 W/m 3,2 km/h (1 Bft) 95,74 %
24.11.2021 00:26 5,4 C 5,0 C 4,4 C 98 % 1029,0 hPa 0,0 l/m 0 min 0 min 0 W/m 0,0 km/h (0 Bft) 95,74 %
24.11.2021 00:28 5,4 C 5,0 C 4,4 C 98 % 1029,0 hPa 0,0 l/m 0 min 0 min 0 W/m 0,0 km/h (0 Bft) 97,87 %
24.11.2021 00:30 5,4 C 5,0 C 4,4 C 98 % 1029,0 hPa 0,0 l/m 0 min 0 min 0 W/m 0,0 km/h (0 Bft) 95,74 %
24.11.2021 00:32 5,4 C 5,0 C 4,4 C 98 % 1029,0 hPa 0,0 l/m 0 min 0 min 0 W/m 0,0 km/h (0 Bft) 97,83 %
24.11.2021 00:34 5,4 C 5,0 C 4,4 C 98 % 1029,0 hPa 0,0 l/m 0 min 0 min 0 W/m 3,2 km/h (1 Bft) 97,87 %
24.11.2021 00:36 5,4 C 5,0 C 4,4 C 98 % 1029,0 hPa 0,0 l/m 0 min 0 min 0 W/m 3,2 km/h (1 Bft) 97,87 %
24.11.2021 00:38 5,4 C 5,0 C 4,4 C 98 % 1028,9 hPa 0,0 l/m 0 min 0 min 0 W/m 3,2 km/h (1 Bft) 97,87 %
24.11.2021 00:40 5,4 C 5,0 C 4,4 C 98 % 1028,9 hPa 0,0 l/m 0 min 0 min 0 W/m 3,2 km/h (1 Bft) 97,87 %
24.11.2021 00:42 5,4 C 5,0 C 4,4 C 98 % 1028,8 hPa 0,0 l/m 0 min 0 min 0 W/m 0,0 km/h (0 Bft) 97,83 %
24.11.2021 00:44 5,4 C 5,0 C 4,4 C 98 % 1028,8 hPa 0,0 l/m 0 min 0 min 0 W/m 0,0 km/h (0 Bft) 95,74 %
24.11.2021 00:46 5,4 C 5,0 C 4,4 C 98 % 1028,8 hPa 0,0 l/m 0 min 0 min 0 W/m 0,0 km/h (0 Bft) 97,87 %
24.11.2021 00:51 5,4 C 5,0 C 4,4 C 98 % 1028,6 hPa 0,0 l/m 0 min 0 min 0 W/m 0,0 km/h (0 Bft) 94,23 %
24.11.2021 00:52 5,5 C 5,0 C 4,4 C 98 % 1028,6 hPa 0,0 l/m 0 min 0 min 0 W/m 0,0 km/h (0 Bft) 95,83 %
24.11.2021 00:54 5,5 C 5,0 C 4,4 C 98 % 1028,5 hPa 0,0 l/m 0 min 0 min 0 W/m 0,0 km/h (0 Bft) 97,83 %
24.11.2021 00:56 5,5 C 5,0 C 4,4 C 98 % 1028,5 hPa 0,0 l/m 0 min 0 min 0 W/m 0,0 km/h (0 Bft) 97,87 %
24.11.2021 00:58 5,5 C 5,0 C 4,4 C 98 % 1028,6 hPa 0,0 l/m 0 min 0 min 0 W/m 0,0 km/h (0 Bft) 97,87 %
24.11.2021 01:00 5,5 C 5,0 C 4,4 C 98 % 1028,6 hPa 0,0 l/m 0 min 0 min 0 W/m 0,0 km/h (0 Bft) 95,74 %
24.11.2021 01:02 5,5 C 5,0 C 4,4 C 98 % 1028,6 hPa 0,0 l/m 0 min 0 min 0 W/m 3,2 km/h (1 Bft) 97,87 %
24.11.2021 01:04 5,5 C 5,0 C 4,4 C 98 % 1028,6 hPa 0,0 l/m 0 min 0 min 0 W/m 3,2 km/h (1 Bft) 97,87 %
24.11.2021 01:06 5,5 C 5,0 C 4,4 C 98 % 1028,6 hPa 0,0 l/m 0 min 0 min 0 W/m 0,0 km/h (0 Bft) 95,65 %
24.11.2021 01:08 5,4 C 5,0 C 4,4 C 98 % 1028,5 hPa 0,0 l/m 0 min 0 min 0 W/m 3,2 km/h (1 Bft) 93,62 %
24.11.2021 01:10 5,4 C 5,0 C 4,4 C 98 % 1028,5 hPa 0,0 l/m 0 min 0 min 0 W/m 3,2 km/h (1 Bft) 95,74 %
24.11.2021 01:12 5,4 C 5,0 C 4,4 C 98 % 1028,5 hPa 0,0 l/m 0 min 0 min 0 W/m 0,0 km/h (0 Bft) 95,12 %
24.11.2021 01:14 5,4 C 5,0 C 4,4 C 98 % 1028,5 hPa 0,0 l/m 0 min 0 min 0 W/m 3,2 km/h (1 Bft) 96,00 %
24.11.2021 01:16 5,4 C 5,0 C 4,4 C 98 % 1028,5 hPa 0,0 l/m 0 min 0 min 0 W/m 0,0 km/h (0 Bft) 95,74 %
24.11.2021 01:18 5,4 C 5,0 C 4,4 C 98 % 1028,4 hPa 0,0 l/m 0 min 0 min 0 W/m 3,2 km/h (1 Bft) 95,74 %
24.11.2021 01:20 5,4 C 5,0 C 4,4 C 98 % 1028,4 hPa 0,0 l/m 0 min 0 min 0 W/m 3,2 km/h (1 Bft) 95,65 %
24.11.2021 01:22 5,4 C 5,0 C 4,4 C 98 % 1028,4 hPa 0,0 l/m 0 min 0 min 0 W/m 3,2 km/h (1 Bft) 94,00 %
24.11.2021 01:24 5,4 C 5,0 C 4,4 C 98 % 1028,4 hPa 0,0 l/m 0 min 0 min 0 W/m 3,2 km/h (1 Bft) 93,62 %
24.11.2021 01:26 5,4 C 5,0 C 4,4 C 98 % 1028,4 hPa 0,0 l/m 0 min 0 min 0 W/m 3,2 km/h (1 Bft) 93,62 %
24.11.2021 01:28 5,4 C 5,0 C 4,4 C 98 % 1028,3 hPa 0,0 l/m 0 min 0 min 0 W/m 3,2 km/h (1 Bft) 95,12 %
24.11.2021 01:30 5,4 C 5,0 C 4,4 C 98 % 1028,4 hPa 0,0 l/m 0 min 0 min 0 W/m 6,4 km/h (2 Bft) 96,00 %
24.11.2021 01:32 5,4 C 5,0 C 4,4 C 98 % 1028,3 hPa 0,0 l/m 0 min 0 min 0 W/m 6,4 km/h (2 Bft) 95,65 %
24.11.2021 01:34 5,4 C 5,0 C 4,4 C 98 % 1028,3 hPa 0,0 l/m 0 min 0 min 0 W/m 6,4 km/h (2 Bft) 97,87 %
24.11.2021 01:36 5,4 C 5,0 C 4,4 C 98 % 1028,4 hPa 0,0 l/m 0 min 0 min 0 W/m 3,2 km/h (1 Bft) 95,74 %
24.11.2021 01:38 5,4 C 5,0 C 4,4 C 98 % 1028,4 hPa 0,0 l/m 0 min 0 min 0 W/m 3,2 km/h (1 Bft) 96,00 %
24.11.2021 01:40 5,4 C 5,0 C 4,4 C 98 % 1028,4 hPa 0,0 l/m 0 min 0 min 0 W/m 3,2 km/h (1 Bft) 95,74 %
24.11.2021 01:42 5,4 C 5,0 C 4,4 C 98 % 1028,4 hPa 0,0 l/m 0 min 0 min 0 W/m 3,2 km/h (1 Bft) 95,65 %
24.11.2021 01:44 5,4 C 5,0 C 4,4 C 98 % 1028,4 hPa 0,0 l/m 0 min 0 min 0 W/m 3,2 km/h (1 Bft) 95,74 %
24.11.2021 01:46 5,4 C 5,0 C 4,4 C 98 % 1028,3 hPa 0,0 l/m 0 min 0 min 0 W/m 3,2 km/h (1 Bft) 97,56 %
24.11.2021 01:48 5,4 C 5,0 C 4,4 C 98 % 1028,3 hPa 0,0 l/m 0 min 0 min 0 W/m 3,2 km/h (1 Bft) 100,00 %
24.11.2021 01:50 5,4 C 5,0 C 4,4 C 98 % 1028,3 hPa 0,0 l/m 0 min 0 min 0 W/m 3,2 km/h (1 Bft) 98,00 %
24.11.2021 01:52 5,3 C 5,0 C 4,4 C 98 % 1028,2 hPa 0,0 l/m 0 min 0 min 0 W/m 3,2 km/h (1 Bft) 100,00 %
24.11.2021 01:54 5,4 C 5,0 C 4,4 C 98 % 1028,3 hPa 0,0 l/m 0 min 0 min 0 W/m 3,2 km/h (1 Bft) 97,87 %
24.11.2021 01:56 5,4 C 5,0 C 4,4 C 98 % 1028,3 hPa 0,0 l/m 0 min 0 min 0 W/m 3,2 km/h (1 Bft) 100,00 %
24.11.2021 01:58 5,4 C 5,0 C 4,4 C 98 % 1028,3 hPa 0,0 l/m 0 min 0 min 0 W/m 3,2 km/h (1 Bft) 100,00 %
24.11.2021 02:00 5,4 C 5,0 C 4,4 C 98 % 1028,3 hPa 0,0 l/m 0 min 0 min 0 W/m 3,2 km/h (1 Bft) 97,56 %
24.11.2021 02:02 5,4 C 5,0 C 4,4 C 98 % 1028,2 hPa 0,0 l/m 0 min 0 min 0 W/m 0,0 km/h (0 Bft) 100,00 %
24.11.2021 02:04 5,4 C 5,0 C 4,4 C 98 % 1028,2 hPa 0,0 l/m 0 min 0 min 0 W/m 3,2 km/h (1 Bft) 100,00 %
24.11.2021 02:06 5,4 C 5,0 C 4,4 C 98 % 1028,2 hPa 0,0 l/m 0 min 0 min 0 W/m 3,2 km/h (1 Bft) 100,00 %
24.11.2021 02:08 5,4 C 5,0 C 4,4 C 98 % 1028,2 hPa 0,0 l/m 0 min 0 min 0 W/m 3,2 km/h (1 Bft) 100,00 %
24.11.2021 02:10 5,4 C 5,0 C 4,4 C 98 % 1028,2 hPa 0,0 l/m 0 min 0 min 0 W/m 3,2 km/h (1 Bft) 97,87 %
24.11.2021 02:12 5,4 C 5,0 C 4,4 C 98 % 1028,2 hPa 0,0 l/m 0 min 0 min 0 W/m 3,2 km/h (1 Bft) 95,74 %
24.11.2021 02:14 5,4 C 5,0 C 4,4 C 98 % 1028,2 hPa 0,0 l/m 0 min 0 min 0 W/m 0,0 km/h (0 Bft) 93,62 %
24.11.2021 02:16 5,4 C 5,0 C 4,4 C 98 % 1028,1 hPa 0,0 l/m 0 min 0 min 0 W/m 3,2 km/h (1 Bft) 97,87 %
24.11.2021 02:18 5,4 C 5,0 C 4,4 C 98 % 1028,2 hPa 0,0 l/m 0 min 0 min 0 W/m 3,2 km/h (1 Bft) 95,92 %
24.11.2021 02:20 5,4 C 5,0 C 4,4 C 98 % 1028,2 hPa 0,0 l/m 0 min 0 min 0 W/m 3,2 km/h (1 Bft) 97,87 %
24.11.2021 02:22 5,4 C 5,0 C 4,4 C 98 % 1028,1 hPa 0,0 l/m 0 min 0 min 0 W/m 3,2 km/h (1 Bft) 97,56 %
24.11.2021 02:24 5,4 C 5,0 C 4,4 C 98 % 1028,1 hPa 0,0 l/m 0 min 0 min 0 W/m 6,4 km/h (2 Bft) 98,00 %
24.11.2021 02:26 5,4 C 5,0 C 4,4 C 98 % 1028,1 hPa 0,0 l/m 0 min 0 min 0 W/m 6,4 km/h (2 Bft) 95,74 %
24.11.2021 02:28 5,4 C 5,0 C 4,4 C 98 % 1028,1 hPa 0,0 l/m 0 min 0 min 0 W/m 6,4 km/h (2 Bft) 97,96 %
24.11.2021 02:30 5,4 C 5,0 C 4,4 C 98 % 1028,1 hPa 0,0 l/m 0 min 0 min 0 W/m 12,9 km/h (3 Bft) 95,74 %
24.11.2021 02:32 5,4 C 5,0 C 4,4 C 98 % 1028,1 hPa 0,0 l/m 0 min 0 min 0 W/m 3,2 km/h (1 Bft) 97,87 %
24.11.2021 02:34 5,4 C 5,0 C 4,4 C 98 % 1028,1 hPa 0,0 l/m 0 min 0 min 0 W/m 0,0 km/h (0 Bft) 97,56 %
24.11.2021 02:36 5,3 C 5,0 C 4,4 C 98 % 1028,2 hPa 0,0 l/m 0 min 0 min 0 W/m 0,0 km/h (0 Bft) 97,87 %
24.11.2021 02:38 5,4 C 5,0 C 4,4 C 98 % 1028,1 hPa 0,0 l/m 0 min 0 min 0 W/m 6,4 km/h (2 Bft) 97,87 %
24.11.2021 02:40 5,3 C 5,0 C 4,4 C 98 % 1028,1 hPa 0,0 l/m 0 min 0 min 0 W/m 3,2 km/h (1 Bft) 97,87 %
24.11.2021 02:42 5,4 C 5,0 C 4,4 C 98 % 1028,1 hPa 0,0 l/m 0 min 0 min 0 W/m 3,2 km/h (1 Bft) 97,83 %
24.11.2021 02:44 5,4 C 5,0 C 4,4 C 98 % 1028,0 hPa 0,0 l/m 0 min 0 min 0 W/m 3,2 km/h (1 Bft) 100,00 %
24.11.2021 02:46 5,4 C 5,0 C 4,4 C 98 % 1028,0 hPa 0,0 l/m 0 min 0 min 0 W/m 0,0 km/h (0 Bft) 56,52 %
24.11.2021 02:48 5,4 C 5,0 C 4,4 C 98 % 1028,0 hPa 0,0 l/m 0 min 0 min 0 W/m 3,2 km/h (1 Bft) 100,00 %
24.11.2021 02:50 5,4 C 5,0 C 4,4 C 98 % 1028,0 hPa 0,0 l/m 0 min 0 min 0 W/m 3,2 km/h (1 Bft) 100,00 %
24.11.2021 02:52 5,4 C 5,0 C 4,4 C 98 % 1027,9 hPa 0,0 l/m 0 min 0 min 0 W/m 0,0 km/h (0 Bft) 100,00 %
24.11.2021 02:54 5,4 C 5,0 C 4,4 C 98 % 1028,0 hPa 0,0 l/m 0 min 0 min 0 W/m 3,2 km/h (1 Bft) 100,00 %
24.11.2021 02:56 5,4 C 5,0 C 4,4 C 98 % 1028,0 hPa 0,0 l/m 0 min 0 min 0 W/m 3,2 km/h (1 Bft) 100,00 %
24.11.2021 02:58 5,4 C 5,0 C 4,4 C 98 % 1028,0 hPa 0,0 l/m 0 min 0 min 0 W/m 0,0 km/h (0 Bft) 100,00 %
24.11.2021 03:00 5,4 C 5,0 C 4,4 C 98 % 1028,0 hPa 0,0 l/m 0 min 0 min 0 W/m 3,2 km/h (1 Bft) 100,00 %
24.11.2021 03:02 5,4 C 5,0 C 4,4 C 98 % 1028,0 hPa 0,0 l/m 0 min 0 min 0 W/m 3,2 km/h (1 Bft) 100,00 %
24.11.2021 03:04 5,4 C 5,0 C 4,4 C 98 % 1027,9 hPa 0,0 l/m 0 min 0 min 0 W/m 3,2 km/h (1 Bft) 100,00 %
24.11.2021 03:06 5,4 C 5,0 C 4,4 C 98 % 1027,9 hPa 0,0 l/m 0 min 0 min 0 W/m 0,0 km/h (0 Bft) 100,00 %
24.11.2021 03:08 5,4 C 5,0 C 4,4 C 98 % 1027,9 hPa 0,0 l/m 0 min 0 min 0 W/m 0,0 km/h (0 Bft) 100,00 %
24.11.2021 03:10 5,4 C 5,0 C 4,4 C 98 % 1027,8 hPa 0,0 l/m 0 min 0 min 0 W/m 3,2 km/h (1 Bft) 98,00 %
24.11.2021 03:12 5,4 C 5,0 C 4,4 C 98 % 1027,8 hPa 0,0 l/m 0 min 0 min 0 W/m 3,2 km/h (1 Bft) 100,00 %
24.11.2021 03:14 5,4 C 5,0 C 4,4 C 98 % 1027,8 hPa 0,0 l/m 0 min 0 min 0 W/m 3,2 km/h (1 Bft) 95,74 %
24.11.2021 03:16 5,4 C 5,0 C 4,4 C 98 % 1027,8 hPa 0,0 l/m 0 min 0 min 0 W/m 3,2 km/h (1 Bft) 100,00 %
24.11.2021 03:18 5,4 C 5,0 C 4,4 C 98 % 1027,8 hPa 0,0 l/m 0 min 0 min 0 W/m 3,2 km/h (1 Bft) 96,15 %
24.11.2021 03:20 5,4 C 5,0 C 4,4 C 98 % 1027,7 hPa 0,0 l/m 0 min 0 min 0 W/m 3,2 km/h (1 Bft) 100,00 %
24.11.2021 03:22 5,4 C 5,0 C 4,4 C 98 % 1027,7 hPa 0,0 l/m 0 min 0 min 0 W/m 3,2 km/h (1 Bft) 97,87 %
24.11.2021 03:24 5,4 C 5,0 C 4,4 C 98 % 1027,6 hPa 0,0 l/m 0 min 0 min 0 W/m 3,2 km/h (1 Bft) 98,00 %
24.11.2021 03:26 5,4 C 5,0 C 4,4 C 98 % 1027,6 hPa 0,0 l/m 0 min 0 min 0 W/m 0,0 km/h (0 Bft) 100,00 %
24.11.2021 03:28 5,4 C 5,0 C 4,4 C 98 % 1027,6 hPa 0,0 l/m 0 min 0 min 0 W/m 6,4 km/h (2 Bft) 97,83 %
24.11.2021 03:30 5,4 C 5,0 C 4,4 C 98 % 1027,5 hPa 0,0 l/m 0 min 0 min 0 W/m 3,2 km/h (1 Bft) 100,00 %
24.11.2021 03:32 5,4 C 5,0 C 4,4 C 98 % 1027,5 hPa 0,0 l/m 0 min 0 min 0 W/m 0,0 km/h (0 Bft) 100,00 %
24.11.2021 03:34 5,4 C 5,0 C 4,4 C 98 % 1027,5 hPa 0,0 l/m 0 min 0 min 0 W/m 0,0 km/h (0 Bft) 100,00 %
24.11.2021 03:36 5,4 C 5,0 C 4,4 C 98 % 1027,5 hPa 0,0 l/m 0 min 0 min 0 W/m 3,2 km/h (1 Bft) 100,00 %
24.11.2021 03:38 5,4 C 5,0 C 4,4 C 98 % 1027,5 hPa 0,0 l/m 0 min 0 min 0 W/m 3,2 km/h (1 Bft) 96,23 %
24.11.2021 03:40 5,4 C 5,0 C 4,4 C 98 % 1027,5 hPa 0,0 l/m 0 min 0 min 0 W/m 3,2 km/h (1 Bft) 97,87 %
24.11.2021 03:42 5,4 C 5,0 C 4,4 C 98 % 1027,4 hPa 0,0 l/m 0 min 0 min 0 W/m 0,0 km/h (0 Bft) 97,83 %
24.11.2021 03:44 5,4 C 5,0 C 4,4 C 98 % 1027,4 hPa 0,0 l/m 0 min 0 min 0 W/m 0,0 km/h (0 Bft) 97,87 %
24.11.2021 03:46 5,4 C 5,0 C 4,4 C 98 % 1027,4 hPa 0,0 l/m 0 min 0 min 0 W/m 0,0 km/h (0 Bft) 98,00 %
24.11.2021 03:48 5,4 C 5,0 C 4,4 C 98 % 1027,4 hPa 0,0 l/m 0 min 0 min 0 W/m 0,0 km/h (0 Bft) 95,74 %
24.11.2021 03:50 5,4 C 5,0 C 4,4 C 98 % 1027,3 hPa 0,0 l/m 0 min 0 min 0 W/m 0,0 km/h (0 Bft) 95,74 %
24.11.2021 03:52 5,4 C 5,0 C 4,4 C 98 % 1027,3 hPa 0,0 l/m 0 min 0 min 0 W/m 0,0 km/h (0 Bft) 95,92 %
24.11.2021 03:54 5,4 C 5,0 C 4,4 C 98 % 1027,3 hPa 0,0 l/m 0 min 0 min 0 W/m 0,0 km/h (0 Bft) 95,74 %
24.11.2021 03:56 5,4 C 5,0 C 4,4 C 98 % 1027,3 hPa 0,0 l/m 0 min 0 min 0 W/m 0,0 km/h (0 Bft) 95,74 %
24.11.2021 03:58 5,4 C 5,0 C 4,4 C 98 % 1027,2 hPa 0,0 l/m 0 min 0 min 0 W/m 0,0 km/h (0 Bft) 97,56 %
24.11.2021 04:00 5,4 C 5,0 C 4,4 C 98 % 1027,2 hPa 0,0 l/m 0 min 0 min 0 W/m 0,0 km/h (0 Bft) 95,74 %
24.11.2021 04:02 5,4 C 5,0 C 4,4 C 98 % 1027,2 hPa 0,0 l/m 0 min 0 min 0 W/m 0,0 km/h (0 Bft) 100,00 %
24.11.2021 04:04 5,4 C 5,0 C 4,4 C 98 % 1027,2 hPa 0,0 l/m 0 min 0 min 0 W/m 0,0 km/h (0 Bft) 97,73 %
24.11.2021 04:06 5,4 C 5,0 C 4,4 C 98 % 1027,2 hPa 0,0 l/m 0 min 0 min 0 W/m 0,0 km/h (0 Bft) 95,65 %
24.11.2021 04:08 5,4 C 5,0 C 4,4 C 98 % 1027,2 hPa 0,0 l/m 0 min 0 min 0 W/m 0,0 km/h (0 Bft) 95,74 %
24.11.2021 04:10 5,4 C 5,0 C 5,0 C 98 % 1027,1 hPa 0,0 l/m 0 min 0 min 0 W/m 0,0 km/h (0 Bft) 91,49 %
24.11.2021 04:12 5,4 C 5,0 C 4,4 C 98 % 1027,1 hPa 0,0 l/m 0 min 0 min 0 W/m 0,0 km/h (0 Bft) 91,49 %
24.11.2021 04:14 5,4 C 5,0 C 4,4 C 98 % 1027,1 hPa 0,0 l/m 0 min 0 min 0 W/m 0,0 km/h (0 Bft) 93,62 %
24.11.2021 04:16 5,4 C 5,0 C 4,4 C 98 % 1027,0 hPa 0,0 l/m 0 min 0 min 0 W/m 0,0 km/h (0 Bft) 95,65 %
24.11.2021 04:18 5,4 C 5,0 C 4,4 C 98 % 1027,0 hPa 0,0 l/m 0 min 0 min 0 W/m 0,0 km/h (0 Bft) 92,86 %
24.11.2021 04:20 5,4 C 5,0 C 4,4 C 98 % 1027,0 hPa 0,0 l/m 0 min 0 min 0 W/m 0,0 km/h (0 Bft) 96,55 %
24.11.2021 04:22 5,4 C 5,0 C 4,4 C 98 % 1027,0 hPa 0,0 l/m 0 min 0 min 0 W/m 3,2 km/h (1 Bft) 95,74 %
24.11.2021 04:24 5,4 C 5,0 C 4,4 C 98 % 1027,0 hPa 0,0 l/m 0 min 0 min 0 W/m 3,2 km/h (1 Bft) 97,87 %
24.11.2021 04:26 5,4 C 5,0 C 4,4 C 98 % 1027,0 hPa 0,0 l/m 0 min 0 min 0 W/m 0,0 km/h (0 Bft) 97,83 %
24.11.2021 04:28 5,4 C 5,0 C 4,4 C 98 % 1027,0 hPa 0,0 l/m 0 min 0 min 0 W/m 0,0 km/h (0 Bft) 97,87 %
24.11.2021 04:30 5,4 C 5,0 C 4,4 C 98 % 1027,0 hPa 0,0 l/m 0 min 0 min 0 W/m 6,4 km/h (2 Bft) 95,74 %
24.11.2021 04:32 5,4 C 5,0 C 4,4 C 98 % 1026,9 hPa 0,0 l/m 0 min 0 min 0 W/m 3,2 km/h (1 Bft) 100,00 %
24.11.2021 04:34 5,4 C 5,0 C 4,4 C 98 % 1026,9 hPa 0,0 l/m 0 min 0 min 0 W/m 0,0 km/h (0 Bft) 97,87 %
24.11.2021 04:36 5,4 C 5,0 C 4,4 C 98 % 1026,9 hPa 0,0 l/m 0 min 0 min 0 W/m 0,0 km/h (0 Bft) 93,48 %
24.11.2021 04:38 5,4 C 5,0 C 4,4 C 98 % 1026,8 hPa 0,0 l/m 0 min 0 min 0 W/m 0,0 km/h (0 Bft) 100,00 %
24.11.2021 04:40 5,4 C 5,0 C 4,4 C 98 % 1026,8 hPa 0,0 l/m 0 min 0 min 0 W/m 3,2 km/h (1 Bft) 97,87 %
24.11.2021 04:42 5,4 C 5,0 C 4,4 C 98 % 1026,8 hPa 0,0 l/m 0 min 0 min 0 W/m 3,2 km/h (1 Bft) 100,00 %
24.11.2021 04:44 5,4 C 5,0 C 4,4 C 98 % 1026,7 hPa 0,0 l/m 0 min 0 min 0 W/m 0,0 km/h (0 Bft) 94,44 %
24.11.2021 04:46 5,4 C 5,0 C 4,4 C 98 % 1026,7 hPa 0,0 l/m 0 min 0 min 0 W/m 0,0 km/h (0 Bft) 97,87 %
24.11.2021 04:48 5,4 C 5,0 C 4,4 C 98 % 1026,6 hPa 0,0 l/m 0 min 0 min 0 W/m 0,0 km/h (0 Bft) 100,00 %
24.11.2021 04:50 5,4 C 5,0 C 4,4 C 98 % 1026,6 hPa 0,0 l/m 0 min 0 min 0 W/m 0,0 km/h (0 Bft) 98,15 %
24.11.2021 04:52 5,4 C 5,0 C 4,4 C 98 % 1026,5 hPa 0,0 l/m 0 min 0 min 0 W/m 3,2 km/h (1 Bft) 100,00 %
24.11.2021 04:54 5,4 C 5,0 C 4,4 C 98 % 1026,5 hPa 0,0 l/m 0 min 0 min 0 W/m 3,2 km/h (1 Bft) 100,00 %
24.11.2021 04:56 5,4 C 5,0 C 4,4 C 98 % 1026,5 hPa 0,0 l/m 0 min 0 min 0 W/m 6,4 km/h (2 Bft) 100,00 %
24.11.2021 04:58 5,4 C 5,0 C 4,4 C 98 % 1026,5 hPa 0,0 l/m 0 min 0 min 0 W/m 3,2 km/h (1 Bft) 97,87 %
24.11.2021 05:00 5,4 C 5,0 C 4,4 C 98 % 1026,5 hPa 0,0 l/m 0 min 0 min 0 W/m 3,2 km/h (1 Bft) 100,00 %
24.11.2021 05:02 5,4 C 5,0 C 4,4 C 99 % 1026,5 hPa 0,0 l/m 0 min 0 min 0 W/m 3,2 km/h (1 Bft) 100,00 %
24.11.2021 05:04 5,4 C 5,0 C 4,4 C 99 % 1026,5 hPa 0,0 l/m 0 min 0 min 0 W/m 3,2 km/h (1 Bft) 100,00 %
24.11.2021 05:06 5,3 C 5,0 C 4,4 C 99 % 1026,4 hPa 0,0 l/m 0 min 0 min 0 W/m 3,2 km/h (1 Bft) 100,00 %
24.11.2021 05:08 5,4 C 5,0 C 4,4 C 99 % 1026,4 hPa 0,0 l/m 0 min 0 min 0 W/m 0,0 km/h (0 Bft) 100,00 %
24.11.2021 05:10 5,3 C 5,0 C 4,4 C 99 % 1026,4 hPa 0,0 l/m 0 min 0 min 0 W/m 3,2 km/h (1 Bft) 100,00 %
24.11.2021 05:12 5,3 C 5,0 C 4,4 C 99 % 1026,4 hPa 0,0 l/m 0 min 0 min 0 W/m 6,4 km/h (2 Bft) 100,00 %
24.11.2021 05:14 5,3 C 5,0 C 4,4 C 99 % 1026,3 hPa 0,0 l/m 0 min 0 min 0 W/m 3,2 km/h (1 Bft) 100,00 %
24.11.2021 05:16 5,3 C 5,0 C 4,4 C 99 % 1026,3 hPa 0,0 l/m 0 min 0 min 0 W/m 3,2 km/h (1 Bft) 97,87 %
24.11.2021 05:18 5,3 C 5,0 C 4,4 C 99 % 1026,3 hPa 0,0 l/m 0 min 0 min 0 W/m 3,2 km/h (1 Bft) 100,00 %
24.11.2021 05:20 5,3 C 5,0 C 4,4 C 99 % 1026,3 hPa 0,0 l/m 0 min 0 min 0 W/m 6,4 km/h (2 Bft) 100,00 %
24.11.2021 05:22 5,3 C 5,0 C 4,4 C 99 % 1026,3 hPa 0,0 l/m 0 min 0 min 0 W/m 3,2 km/h (1 Bft) 100,00 %
24.11.2021 05:24 5,3 C 5,0 C 4,4 C 99 % 1026,2 hPa 0,0 l/m 0 min 0 min 0 W/m 3,2 km/h (1 Bft) 100,00 %
24.11.2021 05:26 5,3 C 4,4 C 4,4 C 99 % 1026,2 hPa 0,0 l/m 0 min 0 min 0 W/m 6,4 km/h (2 Bft) 97,87 %
24.11.2021 05:28 5,3 C 4,4 C 4,4 C 99 % 1026,2 hPa 0,0 l/m 0 min 0 min 0 W/m 3,2 km/h (1 Bft) 100,00 %
24.11.2021 05:30 5,3 C 4,4 C 4,4 C 99 % 1026,2 hPa 0,0 l/m 0 min 0 min 0 W/m 3,2 km/h (1 Bft) 100,00 %
24.11.2021 05:32 5,3 C 4,4 C 4,4 C 99 % 1026,1 hPa 0,0 l/m 0 min 0 min 0 W/m 3,2 km/h (1 Bft) 100,00 %
24.11.2021 05:34 5,3 C 4,4 C 4,4 C 99 % 1026,2 hPa 0,0 l/m 0 min 0 min 0 W/m 3,2 km/h (1 Bft) 100,00 %
24.11.2021 05:36 5,3 C 4,4 C 4,4 C 99 % 1026,1 hPa 0,0 l/m 0 min 0 min 0 W/m 6,4 km/h (2 Bft) 100,00 %
24.11.2021 05:38 5,3 C 4,4 C 4,4 C 99 % 1026,1 hPa 0,0 l/m 0 min 0 min 0 W/m 6,4 km/h (2 Bft) 100,00 %
24.11.2021 05:40 5,2 C 4,4 C 4,4 C 99 % 1026,1 hPa 0,0 l/m 0 min 0 min 0 W/m 3,2 km/h (1 Bft) 100,00 %
24.11.2021 05:42 5,2 C 4,4 C 4,4 C 99 % 1026,1 hPa 0,0 l/m 0 min 0 min 0 W/m 6,4 km/h (2 Bft) 100,00 %
24.11.2021 05:44 5,2 C 4,4 C 4,4 C 99 % 1026,1 hPa 0,0 l/m 0 min 0 min 0 W/m 6,4 km/h (2 Bft) 100,00 %
24.11.2021 05:46 5,2 C 4,4 C 4,4 C 99 % 1026,1 hPa 0,0 l/m 0 min 0 min 0 W/m 3,2 km/h (1 Bft) 100,00 %
24.11.2021 05:48 5,1 C 4,4 C 4,4 C 98 % 1026,1 hPa 0,0 l/m 0 min 0 min 0 W/m 6,4 km/h (2 Bft) 100,00 %
24.11.2021 05:50 5,1 C 4,4 C 4,4 C 98 % 1026,1 hPa 0,0 l/m 0 min 0 min 0 W/m 3,2 km/h (1 Bft) 100,00 %
24.11.2021 05:52 5,1 C 4,4 C 4,4 C 98 % 1026,1 hPa 0,0 l/m 0 min 0 min 0 W/m 3,2 km/h (1 Bft) 100,00 %
24.11.2021 05:54 5,1 C 4,4 C 4,4 C 98 % 1026,1 hPa 0,0 l/m 0 min 0 min 0 W/m 3,2 km/h (1 Bft) 98,31 %
24.11.2021 05:56 5,1 C 4,4 C 4,4 C 98 % 1026,1 hPa 0,0 l/m 0 min 0 min 0 W/m 0,0 km/h (0 Bft) 97,87 %
24.11.2021 05:58 5,1 C 4,4 C 4,4 C 98 % 1026,0 hPa 0,0 l/m 0 min 0 min 0 W/m 0,0 km/h (0 Bft) 97,83 %
24.11.2021 06:00 5,1 C 5,0 C 4,4 C 98 % 1026,0 hPa 0,0 l/m 0 min 0 min 0 W/m 0,0 km/h (0 Bft) 97,14 %
24.11.2021 06:02 5,1 C 5,0 C 4,4 C 98 % 1026,0 hPa 0,0 l/m 0 min 0 min 0 W/m 0,0 km/h (0 Bft) 97,87 %
24.11.2021 06:04 5,1 C 5,0 C 4,4 C 98 % 1026,0 hPa 0,0 l/m 0 min 0 min 0 W/m 0,0 km/h (0 Bft) 95,74 %
24.11.2021 06:08 5,1 C 5,0 C 4,4 C 98 % 1026,0 hPa 0,0 l/m 0 min 0 min 0 W/m 0,0 km/h (0 Bft) 96,00 %
24.11.2021 06:10 5,1 C 5,0 C 4,4 C 98 % 1026,0 hPa 0,0 l/m 0 min 0 min 0 W/m 3,2 km/h (1 Bft) 93,48 %
24.11.2021 06:12 5,1 C 5,0 C 4,4 C 98 % 1026,0 hPa 0,0 l/m 0 min 0 min 0 W/m 0,0 km/h (0 Bft) 93,62 %
24.11.2021 06:14 5,1 C 5,0 C 4,4 C 98 % 1026,0 hPa 0,0 l/m 0 min 0 min 0 W/m 0,0 km/h (0 Bft) 95,74 %
24.11.2021 06:16 5,1 C 5,0 C 4,4 C 98 % 1026,0 hPa 0,0 l/m 0 min 0 min 0 W/m 0,0 km/h (0 Bft) 95,12 %
24.11.2021 06:18 5,1 C 5,0 C 4,4 C 98 % 1026,0 hPa 0,0 l/m 0 min 0 min 0 W/m 3,2 km/h (1 Bft) 93,62 %
24.11.2021 06:20 5,1 C 5,0 C 4,4 C 98 % 1026,0 hPa 0,0 l/m 0 min 0 min 0 W/m 3,2 km/h (1 Bft) 94,64 %
24.11.2021 06:22 5,1 C 5,0 C 4,4 C 98 % 1026,0 hPa 0,0 l/m 0 min 0 min 0 W/m 3,2 km/h (1 Bft) 95,65 %
24.11.2021 06:24 5,1 C 4,4 C 4,4 C 98 % 1026,0 hPa 0,0 l/m 0 min 0 min 0 W/m 3,2 km/h (1 Bft) 95,74 %
24.11.2021 06:26 5,1 C 4,4 C 4,4 C 98 % 1026,0 hPa 0,0 l/m 0 min 0 min 0 W/m 0,0 km/h (0 Bft) 92,11 %
24.11.2021 06:28 5,1 C 5,0 C 4,4 C 98 % 1026,0 hPa 0,0 l/m 0 min 0 min 0 W/m 3,2 km/h (1 Bft) 93,62 %
24.11.2021 06:30 5,1 C 5,0 C 4,4 C 98 % 1025,9 hPa 0,0 l/m 0 min 0 min 0 W/m 3,2 km/h (1 Bft) 95,74 %
24.11.2021 06:32 5,1 C 5,0 C 4,4 C 98 % 1025,9 hPa 0,0 l/m 0 min 0 min 0 W/m 0,0 km/h (0 Bft) 98,11 %
24.11.2021 06:34 5,1 C 5,0 C 4,4 C 98 % 1025,9 hPa 0,0 l/m 0 min 0 min 0 W/m 0,0 km/h (0 Bft) 97,96 %
24.11.2021 06:36 5,1 C 5,0 C 4,4 C 98 % 1025,9 hPa 0,0 l/m 0 min 0 min 0 W/m 0,0 km/h (0 Bft) 97,87 %
24.11.2021 06:38 5,1 C 5,0 C 4,4 C 98 % 1025,9 hPa 0,0 l/m 0 min 0 min 0 W/m 3,2 km/h (1 Bft) 95,74 %
24.11.2021 06:40 5,1 C 5,0 C 4,4 C 98 % 1025,9 hPa 0,0 l/m 0 min 0 min 0 W/m 3,2 km/h (1 Bft) 97,37 %
24.11.2021 06:42 5,1 C 5,0 C 4,4 C 98 % 1025,9 hPa 0,0 l/m 0 min 0 min 0 W/m 3,2 km/h (1 Bft) 95,74 %
24.11.2021 06:44 5,1 C 5,0 C 4,4 C 98 % 1025,9 hPa 0,0 l/m 0 min 0 min 0 W/m 0,0 km/h (0 Bft) 97,87 %
24.11.2021 06:46 5,1 C 5,0 C 4,4 C 98 % 1025,9 hPa 0,0 l/m 0 min 0 min 0 W/m 3,2 km/h (1 Bft) 100,00 %
24.11.2021 06:48 5,1 C 5,0 C 4,4 C 98 % 1025,8 hPa 0,0 l/m 0 min 0 min 0 W/m 3,2 km/h (1 Bft) 100,00 %
24.11.2021 06:50 5,1 C 5,0 C 4,4 C 98 % 1025,8 hPa 0,0 l/m 0 min 0 min 0 W/m 3,2 km/h (1 Bft) 97,87 %
24.11.2021 06:52 5,1 C 5,0 C 4,4 C 98 % 1025,8 hPa 0,0 l/m 0 min 0 min 0 W/m 0,0 km/h (0 Bft) 100,00 %
24.11.2021 06:54 5,1 C 5,0 C 4,4 C 98 % 1025,8 hPa 0,0 l/m 0 min 0 min 0 W/m 3,2 km/h (1 Bft) 100,00 %
24.11.2021 06:56 5,1 C 5,0 C 4,4 C 98 % 1025,8 hPa 0,0 l/m 0 min 0 min 0 W/m 3,2 km/h (1 Bft) 97,83 %
24.11.2021 06:58 5,1 C 5,0 C 4,4 C 98 % 1025,8 hPa 0,0 l/m 0 min 0 min 0 W/m 3,2 km/h (1 Bft) 98,00 %
24.11.2021 07:00 5,1 C 5,0 C 4,4 C 98 % 1025,8 hPa 0,0 l/m 0 min 0 min 0 W/m 6,4 km/h (2 Bft) 100,00 %
24.11.2021 07:02 5,1 C 5,0 C 4,4 C 98 % 1025,8 hPa 0,0 l/m 0 min 0 min 0 W/m 6,4 km/h (2 Bft) 98,11 %
24.11.2021 07:04 5,1 C 5,0 C 4,4 C 98 % 1025,8 hPa 0,0 l/m 0 min 0 min 0 W/m 6,4 km/h (2 Bft) 97,73 %
24.11.2021 07:06 5,1 C 5,0 C 4,4 C 98 % 1025,8 hPa 0,0 l/m 0 min 0 min 0 W/m 3,2 km/h (1 Bft) 97,87 %
24.11.2021 07:08 5,1 C 5,0 C 4,4 C 98 % 1025,7 hPa 0,0 l/m 0 min 0 min 0 W/m 3,2 km/h (1 Bft) 97,87 %
24.11.2021 07:10 5,1 C 5,0 C 4,4 C 98 % 1025,8 hPa 0,0 l/m 0 min 0 min 0 W/m 3,2 km/h (1 Bft) 97,83 %
24.11.2021 07:12 5,1 C 5,0 C 4,4 C 98 % 1025,8 hPa 0,0 l/m 0 min 0 min 0 W/m 6,4 km/h (2 Bft) 97,87 %
24.11.2021 07:14 5,1 C 5,0 C 4,4 C 98 % 1025,7 hPa 0,0 l/m 0 min 0 min 0 W/m 3,2 km/h (1 Bft) 95,45 %
24.11.2021 07:16 5,1 C 5,0 C 4,4 C 98 % 1025,7 hPa 0,0 l/m 0 min 0 min 0 W/m 6,4 km/h (2 Bft) 97,87 %
24.11.2021 07:18 5,1 C 5,0 C 4,4 C 98 % 1025,7 hPa 0,0 l/m 0 min 0 min 0 W/m 6,4 km/h (2 Bft) 97,87 %
24.11.2021 07:20 5,1 C 5,0 C 4,4 C 98 % 1025,6 hPa 0,0 l/m 0 min 0 min 0 W/m 3,2 km/h (1 Bft) 97,87 %
24.11.2021 07:22 5,1 C 5,0 C 4,4 C 98 % 1025,6 hPa 0,0 l/m 0 min 0 min 0 W/m 3,2 km/h (1 Bft) 97,83 %
24.11.2021 07:24 5,1 C 5,0 C 4,4 C 98 % 1025,6 hPa 0,0 l/m 0 min 0 min 0 W/m 0,0 km/h (0 Bft) 97,87 %
24.11.2021 07:26 5,1 C 5,0 C 4,4 C 98 % 1025,7 hPa 0,0 l/m 0 min 0 min 0 W/m 0,0 km/h (0 Bft) 97,87 %
24.11.2021 07:28 5,1 C 5,0 C 4,4 C 98 % 1025,6 hPa 0,0 l/m 0 min 0 min 0 W/m 0,0 km/h (0 Bft) 97,87 %
24.11.2021 07:30 5,1 C 5,0 C 4,4 C 98 % 1025,6 hPa 0,0 l/m 0 min 0 min 0 W/m 0,0 km/h (0 Bft) 95,74 %
24.11.2021 07:32 5,1 C 5,0 C 4,4 C 98 % 1025,6 hPa 0,0 l/m 0 min 0 min 0 W/m 0,0 km/h (0 Bft) 95,65 %
24.11.2021 07:34 5,1 C 5,0 C 5,0 C 98 % 1025,6 hPa 0,0 l/m 0 min 0 min 0 W/m 0,0 km/h (0 Bft) 95,74 %
24.11.2021 07:36 5,1 C 5,0 C 5,0 C 98 % 1025,6 hPa 0,0 l/m 0 min 0 min 0 W/m 0,0 km/h (0 Bft) 97,87 %
24.11.2021 07:38 5,1 C 5,0 C 4,4 C 98 % 1025,5 hPa 0,0 l/m 0 min 0 min 0 W/m 0,0 km/h (0 Bft) 97,87 %
24.11.2021 07:40 5,1 C 5,0 C 5,0 C 98 % 1025,5 hPa 0,0 l/m 0 min 0 min 0 W/m 3,2 km/h (1 Bft) 95,74 %
24.11.2021 07:42 5,1 C 5,0 C 4,4 C 98 % 1025,5 hPa 0,0 l/m 0 min 0 min 0 W/m 0,0 km/h (0 Bft) 95,74 %
24.11.2021 07:44 5,1 C 5,0 C 5,0 C 98 % 1025,5 hPa 0,0 l/m 0 min 0 min 0 W/m 3,2 km/h (1 Bft) 97,83 %
24.11.2021 07:46 5,1 C 5,0 C 5,0 C 98 % 1025,5 hPa 0,0 l/m 0 min 0 min 0 W/m 0,0 km/h (0 Bft) 100,00 %
24.11.2021 07:48 5,1 C 5,0 C 5,0 C 98 % 1025,5 hPa 0,0 l/m 0 min 0 min 0 W/m 3,2 km/h (1 Bft) 97,87 %
24.11.2021 07:50 5,1 C 5,0 C 5,0 C 98 % 1025,5 hPa 0,0 l/m 0 min 0 min 0 W/m 3,2 km/h (1 Bft) 97,87 %
24.11.2021 07:52 5,2 C 5,0 C 5,0 C 99 % 1025,5 hPa 0,0 l/m 0 min 0 min 0 W/m 3,2 km/h (1 Bft) 95,74 %
24.11.2021 07:54 5,2 C 5,0 C 5,0 C 99 % 1025,5 hPa 0,0 l/m 0 min 0 min 0 W/m 0,0 km/h (0 Bft) 97,87 %
24.11.2021 07:56 5,2 C 5,0 C 5,0 C 99 % 1025,4 hPa 0,0 l/m 0 min 0 min 0 W/m 0,0 km/h (0 Bft) 93,48 %
24.11.2021 07:58 5,2 C 5,0 C 5,0 C 99 % 1025,4 hPa 0,0 l/m 0 min 0 min 0 W/m 0,0 km/h (0 Bft) 95,74 %
24.11.2021 08:00 5,2 C 5,0 C 5,0 C 99 % 1025,3 hPa 0,0 l/m 0 min 0 min 0 W/m 0,0 km/h (0 Bft) 95,74 %
24.11.2021 08:02 5,2 C 5,0 C 5,0 C 99 % 1025,4 hPa 0,0 l/m 0 min 0 min 0 W/m 0,0 km/h (0 Bft) 97,87 %
24.11.2021 08:04 5,2 C 5,0 C 5,0 C 99 % 1025,3 hPa 0,0 l/m 0 min 0 min 0 W/m 0,0 km/h (0 Bft) 95,74 %
24.11.2021 08:06 5,3 C 5,0 C 5,0 C 99 % 1025,3 hPa 0,0 l/m 0 min 0 min 0 W/m 3,2 km/h (1 Bft) 95,74 %
24.11.2021 08:08 5,3 C 5,0 C 5,0 C 99 % 1025,4 hPa 0,0 l/m 0 min 0 min 0 W/m 0,0 km/h (0 Bft) 97,83 %
24.11.2021 08:10 5,3 C 5,0 C 5,0 C 99 % 1025,4 hPa 0,0 l/m 0 min 0 min 0 W/m 0,0 km/h (0 Bft) 95,74 %
24.11.2021 08:12 5,3 C 5,0 C 5,0 C 99 % 1025,4 hPa 0,0 l/m 0 min 0 min 0 W/m 0,0 km/h (0 Bft) 97,87 %
24.11.2021 08:14 5,3 C 5,0 C 5,0 C 99 % 1025,5 hPa 0,0 l/m 0 min 0 min 0 W/m 0,0 km/h (0 Bft) 95,74 %
24.11.2021 08:16 5,3 C 5,0 C 5,0 C 99 % 1025,5 hPa 0,0 l/m 0 min 0 min 0 W/m 0,0 km/h (0 Bft) 97,87 %
24.11.2021 08:18 5,3 C 5,0 C 5,0 C 99 % 1025,5 hPa 0,0 l/m 0 min 0 min 0 W/m 0,0 km/h (0 Bft) 97,83 %
24.11.2021 08:20 5,3 C 5,0 C 5,0 C 99 % 1025,4 hPa 0,0 l/m 0 min 0 min 0 W/m 0,0 km/h (0 Bft) 97,87 %
24.11.2021 08:22 5,3 C 5,0 C 5,0 C 99 % 1025,4 hPa 0,0 l/m 0 min 0 min 1 W/m 0,0 km/h (0 Bft) 97,87 %
24.11.2021 08:24 5,3 C 5,0 C 5,0 C 99 % 1025,4 hPa 0,0 l/m 0 min 0 min 5 W/m 0,0 km/h (0 Bft) 100,00 %
24.11.2021 08:26 5,3 C 5,0 C 5,0 C 99 % 1025,4 hPa 0,0 l/m 0 min 0 min 5 W/m 0,0 km/h (0 Bft) 97,87 %
24.11.2021 08:28 5,3 C 5,0 C 5,0 C 99 % 1025,5 hPa 0,0 l/m 0 min 0 min 5 W/m 3,2 km/h (1 Bft) 100,00 %
24.11.2021 08:30 5,3 C 5,0 C 5,0 C 99 % 1025,4 hPa 0,0 l/m 0 min 0 min 5 W/m 0,0 km/h (0 Bft) 97,83 %
24.11.2021 08:32 5,3 C 5,0 C 5,0 C 99 % 1025,5 hPa 0,0 l/m 0 min 0 min 5 W/m 0,0 km/h (0 Bft) 87,23 %
24.11.2021 08:34 5,3 C 5,0 C 5,0 C 99 % 1025,4 hPa 0,0 l/m 0 min 0 min 5 W/m 0,0 km/h (0 Bft) 65,12 %
24.11.2021 08:36 5,3 C 5,0 C 5,0 C 99 % 1025,4 hPa 0,0 l/m 0 min 0 min 7 W/m 0,0 km/h (0 Bft) 95,74 %
24.11.2021 08:38 5,3 C 5,0 C 5,0 C 99 % 1025,4 hPa 0,0 l/m 0 min 0 min 7 W/m 0,0 km/h (0 Bft) 95,74 %
24.11.2021 08:40 5,3 C 5,0 C 5,0 C 99 % 1025,4 hPa 0,0 l/m 0 min 0 min 8 W/m 0,0 km/h (0 Bft) 97,87 %
24.11.2021 08:42 5,3 C 5,0 C 5,0 C 99 % 1025,4 hPa 0,0 l/m 0 min 0 min 9 W/m 0,0 km/h (0 Bft) 97,83 %
24.11.2021 08:44 5,4 C 5,0 C 5,0 C 99 % 1025,4 hPa 0,0 l/m 0 min 0 min 9 W/m 0,0 km/h (0 Bft) 97,87 %
24.11.2021 08:46 5,4 C 5,0 C 5,0 C 99 % 1025,4 hPa 0,0 l/m 0 min 0 min 10 W/m 0,0 km/h (0 Bft) 97,87 %
24.11.2021 08:48 5,4 C 5,0 C 5,0 C 99 % 1025,4 hPa 0,0 l/m 0 min 0 min 11 W/m 0,0 km/h (0 Bft) 98,00 %
24.11.2021 08:50 5,4 C 5,0 C 5,0 C 98 % 1025,4 hPa 0,0 l/m 0 min 0 min 12 W/m 0,0 km/h (0 Bft) 97,87 %
24.11.2021 08:52 5,4 C 5,0 C 5,0 C 98 % 1025,4 hPa 0,0 l/m 0 min 0 min 14 W/m 0,0 km/h (0 Bft) 97,73 %
24.11.2021 08:54 5,4 C 5,0 C 5,0 C 98 % 1025,4 hPa 0,0 l/m 0 min 0 min 14 W/m 0,0 km/h (0 Bft) 95,92 %
24.11.2021 08:56 5,4 C 5,0 C 5,0 C 99 % 1025,4 hPa 0,0 l/m 0 min 0 min 16 W/m 0,0 km/h (0 Bft) 97,87 %
24.11.2021 08:58 5,4 C 5,6 C 5,0 C 98 % 1025,3 hPa 0,0 l/m 0 min 0 min 17 W/m 0,0 km/h (0 Bft) 97,37 %
24.11.2021 09:00 5,4 C 5,6 C 5,0 C 98 % 1025,2 hPa 0,0 l/m 0 min 0 min 19 W/m 0,0 km/h (0 Bft) 98,21 %
24.11.2021 09:02 5,4 C 5,6 C 5,0 C 98 % 1025,3 hPa 0,0 l/m 0 min 0 min 19 W/m 0,0 km/h (0 Bft) 96,00 %
24.11.2021 09:04 5,5 C 5,6 C 5,0 C 98 % 1025,2 hPa 0,0 l/m 0 min 0 min 21 W/m 0,0 km/h (0 Bft) 95,92 %
24.11.2021 09:06 5,5 C 5,6 C 5,0 C 98 % 1025,2 hPa 0,0 l/m 0 min 0 min 23 W/m 0,0 km/h (0 Bft) 100,00 %
24.11.2021 09:08 5,5 C 5,6 C 5,0 C 98 % 1025,2 hPa 0,0 l/m 0 min 0 min 24 W/m 0,0 km/h (0 Bft) 97,87 %
24.11.2021 09:10 5,5 C 5,6 C 5,0 C 98 % 1025,2 hPa 0,0 l/m 0 min 0 min 25 W/m 0,0 km/h (0 Bft) 95,74 %
24.11.2021 09:12 5,5 C 5,6 C 5,0 C 98 % 1025,2 hPa 0,0 l/m 0 min 0 min 25 W/m 0,0 km/h (0 Bft) 100,00 %
24.11.2021 09:14 5,5 C 5,6 C 5,0 C 98 % 1025,1 hPa 0,0 l/m 0 min 0 min 31 W/m 0,0 km/h (0 Bft) 100,00 %
24.11.2021 09:16 5,5 C 5,6 C 5,0 C 99 % 1025,1 hPa 0,0 l/m 0 min 0 min 33 W/m 0,0 km/h (0 Bft) 100,00 %
24.11.2021 09:18 5,5 C 5,6 C 5,0 C 99 % 1025,1 hPa 0,0 l/m 0 min 0 min 35 W/m 0,0 km/h (0 Bft) 97,14 %
24.11.2021 09:20 5,6 C 5,6 C 5,0 C 99 % 1025,0 hPa 0,0 l/m 0 min 0 min 36 W/m 0,0 km/h (0 Bft) 100,00 %
24.11.2021 09:22 5,6 C 5,6 C 5,0 C 99 % 1025,0 hPa 0,0 l/m 0 min 0 min 39 W/m 0,0 km/h (0 Bft) 100,00 %
24.11.2021 09:24 5,6 C 5,6 C 5,0 C 99 % 1025,0 hPa 0,0 l/m 0 min 0 min 42 W/m 0,0 km/h (0 Bft) 100,00 %
24.11.2021 09:26 5,6 C 5,6 C 5,0 C 99 % 1025,0 hPa 0,0 l/m 0 min 0 min 44 W/m 0,0 km/h (0 Bft) 100,00 %
24.11.2021 09:28 5,6 C 5,6 C 5,0 C 99 % 1025,0 hPa 0,0 l/m 0 min 0 min 46 W/m 0,0 km/h (0 Bft) 100,00 %
24.11.2021 09:30 5,6 C 5,6 C 5,0 C 99 % 1024,9 hPa 0,0 l/m 0 min 0 min 47 W/m 0,0 km/h (0 Bft) 100,00 %
24.11.2021 09:32 5,6 C 5,6 C 5,0 C 99 % 1024,9 hPa 0,0 l/m 0 min 0 min 47 W/m 0,0 km/h (0 Bft) 100,00 %
24.11.2021 09:34 5,7 C 5,6 C 5,0 C 99 % 1024,9 hPa 0,0 l/m 0 min 0 min 48 W/m 0,0 km/h (0 Bft) 98,11 %
24.11.2021 09:36 5,7 C 6,1 C 5,0 C 99 % 1024,9 hPa 0,0 l/m 0 min 0 min 50 W/m 0,0 km/h (0 Bft) 100,00 %
24.11.2021 09:38 5,7 C 6,1 C 5,0 C 99 % 1025,0 hPa 0,0 l/m 0 min 0 min 53 W/m 0,0 km/h (0 Bft) 97,87 %
24.11.2021 09:40 5,7 C 6,1 C 5,0 C 99 % 1024,9 hPa 0,0 l/m 0 min 0 min 53 W/m 0,0 km/h (0 Bft) 100,00 %
24.11.2021 09:42 5,7 C 6,1 C 5,0 C 99 % 1024,9 hPa 0,0 l/m 0 min 0 min 53 W/m 0,0 km/h (0 Bft) 96,00 %
24.11.2021 09:44 5,7 C 6,1 C 5,0 C 99 % 1024,9 hPa 0,0 l/m 0 min 0 min 51 W/m 0,0 km/h (0 Bft) 97,14 %
24.11.2021 09:46 5,7 C 6,1 C 5,0 C 99 % 1025,0 hPa 0,0 l/m 0 min 0 min 47 W/m 3,2 km/h (1 Bft) 98,21 %
24.11.2021 09:48 5,7 C 5,6 C 5,0 C 99 % 1024,9 hPa 0,0 l/m 0 min 0 min 47 W/m 0,0 km/h (0 Bft) 98,00 %
24.11.2021 09:50 5,8 C 5,6 C 5,6 C 99 % 1024,9 hPa 0,0 l/m 0 min 0 min 47 W/m 3,2 km/h (1 Bft) 97,14 %
24.11.2021 09:52 5,8 C 5,6 C 5,0 C 99 % 1025,0 hPa 0,0 l/m 0 min 0 min 47 W/m 6,4 km/h (2 Bft) 96,36 %
24.11.2021 09:54 5,8 C 5,6 C 5,0 C 99 % 1024,9 hPa 0,0 l/m 0 min 0 min 48 W/m 0,0 km/h (0 Bft) 97,87 %
24.11.2021 09:56 5,8 C 6,1 C 5,6 C 99 % 1024,9 hPa 0,0 l/m 0 min 0 min 49 W/m 0,0 km/h (0 Bft) 98,00 %
24.11.2021 09:58 5,8 C 6,1 C 5,6 C 99 % 1024,9 hPa 0,0 l/m 0 min 0 min 51 W/m 3,2 km/h (1 Bft) 94,74 %
24.11.2021 10:00 5,8 C 6,1 C 5,6 C 99 % 1024,9 hPa 0,0 l/m 0 min 0 min 50 W/m 3,2 km/h (1 Bft) 97,87 %
24.11.2021 10:02 5,8 C 6,1 C 5,6 C 99 % 1024,8 hPa 0,0 l/m 0 min 0 min 49 W/m 0,0 km/h (0 Bft) 96,36 %
24.11.2021 10:04 5,8 C 6,1 C 5,6 C 99 % 1024,9 hPa 0,0 l/m 0 min 0 min 50 W/m 3,2 km/h (1 Bft) 95,45 %
24.11.2021 10:06 5,8 C 6,1 C 5,6 C 99 % 1024,8 hPa 0,0 l/m 0 min 0 min 52 W/m 3,2 km/h (1 Bft) 93,18 %
24.11.2021 10:08 5,8 C 6,1 C 5,6 C 99 % 1024,7 hPa 0,0 l/m 0 min 0 min 53 W/m 0,0 km/h (0 Bft) 92,00 %
24.11.2021 10:10 5,8 C 6,1 C 5,6 C 99 % 1024,7 hPa 0,0 l/m 0 min 0 min 53 W/m 0,0 km/h (0 Bft) 95,74 %
24.11.2021 10:12 5,8 C 6,1 C 5,6 C 99 % 1024,7 hPa 0,0 l/m 0 min 0 min 57 W/m 0,0 km/h (0 Bft) 94,34 %
24.11.2021 10:14 5,9 C 6,1 C 5,6 C 99 % 1024,7 hPa 0,0 l/m 0 min 0 min 63 W/m 0,0 km/h (0 Bft) 94,87 %
24.11.2021 10:16 5,9 C 6,1 C 5,6 C 99 % 1024,6 hPa 0,0 l/m 0 min 0 min 65 W/m 0,0 km/h (0 Bft) 97,92 %
24.11.2021 10:18 5,9 C 6,1 C 5,6 C 99 % 1024,6 hPa 0,0 l/m 0 min 0 min 68 W/m 3,2 km/h (1 Bft) 97,87 %
24.11.2021 10:20 5,9 C 6,1 C 5,6 C 99 % 1024,6 hPa 0,0 l/m 0 min 0 min 62 W/m 0,0 km/h (0 Bft) 98,15 %
24.11.2021 10:22 5,9 C 6,1 C 5,6 C 99 % 1024,6 hPa 0,0 l/m 0 min 0 min 54 W/m 3,2 km/h (1 Bft) 97,37 %
24.11.2021 10:24 5,9 C 6,1 C 5,6 C 99 % 1024,6 hPa 0,0 l/m 0 min 0 min 52 W/m 3,2 km/h (1 Bft) 95,92 %
24.11.2021 10:26 5,9 C 6,1 C 5,6 C 99 % 1024,5 hPa 0,0 l/m 0 min 0 min 49 W/m 3,2 km/h (1 Bft) 97,83 %
24.11.2021 10:28 5,9 C 6,1 C 5,6 C 99 % 1024,6 hPa 0,0 l/m 0 min 0 min 49 W/m 3,2 km/h (1 Bft) 98,15 %
24.11.2021 10:30 5,9 C 6,1 C 5,6 C 99 % 1024,5 hPa 0,0 l/m 0 min 0 min 47 W/m 3,2 km/h (1 Bft) 100,00 %
24.11.2021 10:32 5,9 C 6,1 C 5,6 C 99 % 1024,4 hPa 0,0 l/m 0 min 0 min 49 W/m 3,2 km/h (1 Bft) 97,96 %
24.11.2021 10:34 5,9 C 6,1 C 5,6 C 99 % 1024,5 hPa 0,0 l/m 0 min 0 min 52 W/m 3,2 km/h (1 Bft) 97,87 %
24.11.2021 10:36 5,9 C 6,1 C 5,6 C 99 % 1024,5 hPa 0,0 l/m 0 min 0 min 50 W/m 3,2 km/h (1 Bft) 98,11 %
24.11.2021 10:38 5,9 C 6,1 C 5,6 C 99 % 1024,4 hPa 0,0 l/m 0 min 0 min 48 W/m 6,4 km/h (2 Bft) 97,37 %
24.11.2021 10:40 5,9 C 6,1 C 5,6 C 99 % 1024,4 hPa 0,0 l/m 0 min 0 min 57 W/m 6,4 km/h (2 Bft) 97,87 %
24.11.2021 10:42 6,0 C 6,1 C 5,6 C 99 % 1024,4 hPa 0,0 l/m 0 min 0 min 61 W/m 6,4 km/h (2 Bft) 95,92 %
24.11.2021 10:44 6,0 C 6,1 C 5,6 C 99 % 1024,4 hPa 0,0 l/m 0 min 0 min 60 W/m 3,2 km/h (1 Bft) 97,87 %
24.11.2021 10:46 6,0 C 6,1 C 5,6 C 99 % 1024,4 hPa 0,0 l/m 0 min 0 min 63 W/m 6,4 km/h (2 Bft) 98,15 %
24.11.2021 10:48 6,0 C 6,1 C 5,6 C 99 % 1024,4 hPa 0,0 l/m 0 min 0 min 58 W/m 3,2 km/h (1 Bft) 97,37 %
24.11.2021 10:50 6,0 C 6,1 C 5,6 C 99 % 1024,3 hPa 0,0 l/m 0 min 0 min 55 W/m 6,4 km/h (2 Bft) 95,83 %
24.11.2021 10:52 6,0 C 6,1 C 5,6 C 99 % 1024,3 hPa 0,0 l/m 0 min 0 min 56 W/m 3,2 km/h (1 Bft) 100,00 %
24.11.2021 10:54 6,0 C 6,1 C 5,6 C 99 % 1024,3 hPa 0,0 l/m 0 min 0 min 56 W/m 3,2 km/h (1 Bft) 100,00 %
24.11.2021 10:56 6,0 C 6,1 C 5,6 C 99 % 1024,3 hPa 0,0 l/m 0 min 0 min 60 W/m 3,2 km/h (1 Bft) 97,37 %
24.11.2021 10:58 6,0 C 6,1 C 5,6 C 99 % 1024,3 hPa 0,0 l/m 0 min 0 min 57 W/m 3,2 km/h (1 Bft) 96,00 %
24.11.2021 11:00 6,0 C 6,1 C 5,6 C 99 % 1024,2 hPa 0,0 l/m 0 min 0 min 55 W/m 3,2 km/h (1 Bft) 100,00 %
24.11.2021 11:02 6,0 C 6,1 C 5,6 C 99 % 1024,3 hPa 0,0 l/m 0 min 0 min 55 W/m 3,2 km/h (1 Bft) 98,00 %
24.11.2021 11:04 6,0 C 6,1 C 5,6 C 99 % 1024,2 hPa 0,0 l/m 0 min 0 min 61 W/m 6,4 km/h (2 Bft) 97,14 %
24.11.2021 11:06 6,0 C 6,1 C 5,6 C 99 % 1024,2 hPa 0,0 l/m 0 min 0 min 63 W/m 6,4 km/h (2 Bft) 96,30 %
24.11.2021 11:08 6,0 C 6,1 C 5,6 C 99 % 1024,2 hPa 0,0 l/m 0 min 0 min 63 W/m 3,2 km/h (1 Bft) 97,87 %
24.11.2021 11:10 6,0 C 6,1 C 5,6 C 99 % 1024,1 hPa 0,0 l/m 0 min 0 min 67 W/m 3,2 km/h (1 Bft) 97,87 %
24.11.2021 11:12 6,0 C 6,1 C 5,6 C 99 % 1024,1 hPa 0,0 l/m 0 min 0 min 70 W/m 3,2 km/h (1 Bft) 97,96 %
24.11.2021 11:14 6,0 C 6,1 C 5,6 C 99 % 1024,0 hPa 0,0 l/m 0 min 0 min 68 W/m 6,4 km/h (2 Bft) 97,96 %
24.11.2021 11:16 6,0 C 6,1 C 5,6 C 99 % 1024,0 hPa 0,0 l/m 0 min 0 min 65 W/m 3,2 km/h (1 Bft) 91,43 %
24.11.2021 11:18 6,0 C 6,1 C 5,6 C 99 % 1024,0 hPa 0,0 l/m 0 min 0 min 70 W/m 3,2 km/h (1 Bft) 98,15 %
24.11.2021 11:20 6,0 C 6,1 C 5,6 C 99 % 1023,9 hPa 0,0 l/m 0 min 0 min 71 W/m 3,2 km/h (1 Bft) 94,00 %
24.11.2021 11:22 6,0 C 6,1 C 5,6 C 99 % 1023,9 hPa 0,0 l/m 0 min 0 min 70 W/m 3,2 km/h (1 Bft) 97,92 %
24.11.2021 11:24 6,0 C 6,1 C 5,6 C 99 % 1023,9 hPa 0,0 l/m 0 min 0 min 76 W/m 3,2 km/h (1 Bft) 100,00 %
24.11.2021 11:26 6,0 C 6,1 C 5,6 C 99 % 1023,9 hPa 0,0 l/m 0 min 0 min 87 W/m 3,2 km/h (1 Bft) 96,23 %
24.11.2021 11:28 6,0 C 6,1 C 5,6 C 99 % 1023,8 hPa 0,0 l/m 0 min 0 min 100 W/m 6,4 km/h (2 Bft) 96,00 %
24.11.2021 11:30 6,1 C 6,7 C 5,6 C 99 % 1023,7 hPa 0,0 l/m 0 min 0 min 105 W/m 0,0 km/h (0 Bft) 97,96 %
24.11.2021 11:32 6,1 C 6,7 C 5,6 C 99 % 1023,7 hPa 0,0 l/m 0 min 0 min 105 W/m 3,2 km/h (1 Bft) 94,29 %
24.11.2021 11:34 6,1 C 6,7 C 5,6 C 99 % 1023,7 hPa 0,0 l/m 0 min 0 min 104 W/m 3,2 km/h (1 Bft) 96,23 %
24.11.2021 11:36 6,1 C 6,7 C 5,6 C 99 % 1023,6 hPa 0,0 l/m 0 min 0 min 103 W/m 3,2 km/h (1 Bft) 96,00 %
24.11.2021 11:38 6,1 C 6,7 C 5,6 C 99 % 1023,6 hPa 0,0 l/m 0 min 0 min 100 W/m 0,0 km/h (0 Bft) 97,96 %
24.11.2021 11:40 6,1 C 6,7 C 5,6 C 99 % 1023,6 hPa 0,0 l/m 0 min 0 min 100 W/m 3,2 km/h (1 Bft) 97,14 %
24.11.2021 11:42 6,1 C 6,7 C 5,6 C 99 % 1023,6 hPa 0,0 l/m 0 min 0 min 101 W/m 3,2 km/h (1 Bft) 94,44 %
24.11.2021 11:44 6,2 C 6,7 C 5,6 C 99 % 1023,6 hPa 0,0 l/m 0 min 0 min 102 W/m 3,2 km/h (1 Bft) 96,00 %
24.11.2021 11:46 6,2 C 6,7 C 5,6 C 99 % 1023,6 hPa 0,0 l/m 0 min 0 min 101 W/m 3,2 km/h (1 Bft) 95,83 %
24.11.2021 11:48 6,2 C 6,7 C 6,1 C 99 % 1023,6 hPa 0,0 l/m 0 min 0 min 107 W/m 3,2 km/h (1 Bft) 94,44 %
24.11.2021 11:50 6,2 C 7,2 C 6,1 C 99 % 1023,5 hPa 0,0 l/m 0 min 0 min 112 W/m 3,2 km/h (1 Bft) 98,11 %
24.11.2021 11:52 6,2 C 7,2 C 6,1 C 99 % 1023,5 hPa 0,0 l/m 0 min 0 min 115 W/m 3,2 km/h (1 Bft) 98,00 %
24.11.2021 11:54 6,3 C 6,7 C 6,1 C 99 % 1023,4 hPa 0,0 l/m 0 min 0 min 114 W/m 3,2 km/h (1 Bft) 95,92 %
24.11.2021 11:56 6,3 C 7,2 C 6,1 C 99 % 1023,4 hPa 0,0 l/m 0 min 0 min 111 W/m 3,2 km/h (1 Bft) 97,14 %
24.11.2021 11:58 6,3 C 6,7 C 6,1 C 99 % 1023,3 hPa 0,0 l/m 0 min 0 min 118 W/m 3,2 km/h (1 Bft) 96,00 %
24.11.2021 12:00 6,3 C 7,2 C 6,1 C 99 % 1023,1 hPa 0,0 l/m 0 min 0 min 128 W/m 0,0 km/h (0 Bft) 96,23 %
24.11.2021 12:02 6,4 C 7,2 C 6,1 C 99 % 1023,1 hPa 0,0 l/m 0 min 0 min 132 W/m 3,2 km/h (1 Bft) 98,00 %
24.11.2021 12:04 6,4 C 7,2 C 6,1 C 99 % 1023,1 hPa 0,0 l/m 0 min 0 min 131 W/m 3,2 km/h (1 Bft) 94,74 %
24.11.2021 12:08 6,4 C 7,2 C 6,1 C 99 % 1023,0 hPa 0,0 l/m 0 min 0 min 124 W/m 3,2 km/h (1 Bft) 96,91 %
24.11.2021 12:10 6,4 C 7,2 C 6,1 C 99 % 1023,0 hPa 0,0 l/m 0 min 0 min 128 W/m 3,2 km/h (1 Bft) 97,92 %
24.11.2021 12:12 6,4 C 7,2 C 6,1 C 99 % 1022,9 hPa 0,0 l/m 0 min 0 min 125 W/m 3,2 km/h (1 Bft) 97,87 %
24.11.2021 12:14 6,5 C 7,2 C 6,1 C 99 % 1022,9 hPa 0,0 l/m 0 min 0 min 116 W/m 3,2 km/h (1 Bft) 97,62 %
24.11.2021 12:16 6,5 C 7,2 C 6,1 C 99 % 1022,9 hPa 0,0 l/m 0 min 0 min 113 W/m 3,2 km/h (1 Bft) 97,87 %
24.11.2021 12:18 6,5 C 7,2 C 6,1 C 99 % 1022,9 hPa 0,0 l/m 0 min 0 min 113 W/m 3,2 km/h (1 Bft) 100,00 %
24.11.2021 12:20 6,5 C 7,2 C 6,1 C 99 % 1022,9 hPa 0,0 l/m 0 min 0 min 109 W/m 3,2 km/h (1 Bft) 100,00 %
24.11.2021 12:22 6,5 C 7,2 C 6,1 C 99 % 1022,8 hPa 0,0 l/m 0 min 0 min 114 W/m 3,2 km/h (1 Bft) 97,83 %
24.11.2021 12:24 6,5 C 7,2 C 6,1 C 99 % 1022,8 hPa 0,0 l/m 0 min 0 min 115 W/m 3,2 km/h (1 Bft) 97,62 %
24.11.2021 12:26 6,5 C 7,2 C 6,1 C 99 % 1022,8 hPa 0,0 l/m 0 min 0 min 115 W/m 6,4 km/h (2 Bft) 60,42 %
24.11.2021 12:28 6,5 C 7,2 C 6,1 C 99 % 1022,7 hPa 0,0 l/m 0 min 0 min 113 W/m 6,4 km/h (2 Bft) 100,00 %
24.11.2021 12:30 6,5 C 7,2 C 6,1 C 99 % 1022,7 hPa 0,0 l/m 0 min 0 min 110 W/m 3,2 km/h (1 Bft) 97,87 %
24.11.2021 12:32 6,5 C 7,2 C 6,1 C 99 % 1022,7 hPa 0,0 l/m 0 min 0 min 114 W/m 3,2 km/h (1 Bft) 97,62 %
24.11.2021 12:34 6,5 C 7,2 C 6,1 C 99 % 1022,7 hPa 0,0 l/m 0 min 0 min 115 W/m 3,2 km/h (1 Bft) 100,00 %
24.11.2021 12:36 6,6 C 7,2 C 6,1 C 99 % 1022,6 hPa 0,0 l/m 0 min 0 min 114 W/m 3,2 km/h (1 Bft) 100,00 %
24.11.2021 12:38 6,6 C 7,2 C 6,1 C 99 % 1022,6 hPa 0,0 l/m 0 min 0 min 118 W/m 3,2 km/h (1 Bft) 100,00 %
24.11.2021 12:40 6,6 C 7,2 C 6,1 C 99 % 1022,6 hPa 0,0 l/m 0 min 0 min 114 W/m 6,4 km/h (2 Bft) 100,00 %
24.11.2021 12:42 6,6 C 7,2 C 6,1 C 99 % 1022,6 hPa 0,0 l/m 0 min 0 min 105 W/m 3,2 km/h (1 Bft) 100,00 %
24.11.2021 12:44 6,6 C 7,2 C 6,1 C 99 % 1022,5 hPa 0,0 l/m 0 min 0 min 104 W/m 3,2 km/h (1 Bft) 97,96 %
24.11.2021 12:46 6,6 C 7,2 C 6,1 C 99 % 1022,4 hPa 0,0 l/m 0 min 0 min 99 W/m 6,4 km/h (2 Bft) 100,00 %
24.11.2021 12:48 6,6 C 7,2 C 6,1 C 99 % 1022,4 hPa 0,0 l/m 0 min 0 min 93 W/m 3,2 km/h (1 Bft) 97,87 %
24.11.2021 12:50 6,6 C 7,2 C 6,1 C 99 % 1022,4 hPa 0,0 l/m 0 min 0 min 91 W/m 3,2 km/h (1 Bft) 97,62 %
24.11.2021 12:52 6,6 C 7,2 C 6,1 C 99 % 1022,3 hPa 0,0 l/m 0 min 0 min 91 W/m 6,4 km/h (2 Bft) 98,00 %
24.11.2021 12:54 6,6 C 7,2 C 6,1 C 99 % 1022,3 hPa 0,0 l/m 0 min 0 min 90 W/m 3,2 km/h (1 Bft) 97,96 %
24.11.2021 12:56 6,6 C 7,2 C 6,1 C 99 % 1022,3 hPa 0,0 l/m 0 min 0 min 91 W/m 3,2 km/h (1 Bft) 97,83 %
24.11.2021 12:58 6,6 C 7,2 C 6,1 C 99 % 1022,2 hPa 0,0 l/m 0 min 0 min 92 W/m 6,4 km/h (2 Bft) 97,37 %
24.11.2021 13:00 6,6 C 7,2 C 6,1 C 99 % 1022,2 hPa 0,0 l/m 0 min 0 min 95 W/m 12,9 km/h (3 Bft) 96,30 %
24.11.2021 13:02 6,6 C 7,2 C 6,1 C 99 % 1022,1 hPa 0,0 l/m 0 min 0 min 95 W/m 6,4 km/h (2 Bft) 98,00 %
24.11.2021 13:04 6,6 C 7,2 C 6,1 C 99 % 1022,0 hPa 0,0 l/m 0 min 0 min 95 W/m 3,2 km/h (1 Bft) 98,00 %
24.11.2021 13:06 6,6 C 7,2 C 6,1 C 99 % 1022,1 hPa 0,0 l/m 0 min 0 min 92 W/m 3,2 km/h (1 Bft) 94,74 %
24.11.2021 13:08 6,6 C 7,2 C 6,1 C 99 % 1022,0 hPa 0,0 l/m 0 min 0 min 93 W/m 6,4 km/h (2 Bft) 97,92 %
24.11.2021 13:10 6,6 C 7,2 C 6,1 C 99 % 1022,0 hPa 0,0 l/m 0 min 0 min 102 W/m 6,4 km/h (2 Bft) 97,87 %
24.11.2021 13:12 6,6 C 7,2 C 6,1 C 99 % 1022,0 hPa 0,0 l/m 0 min 0 min 106 W/m 6,4 km/h (2 Bft) 95,74 %
24.11.2021 13:14 6,7 C 7,2 C 6,1 C 99 % 1021,9 hPa 0,0 l/m 0 min 0 min 106 W/m 3,2 km/h (1 Bft) 98,15 %
24.11.2021 13:16 6,7 C 7,2 C 6,1 C 99 % 1021,8 hPa 0,0 l/m 0 min 0 min 112 W/m 3,2 km/h (1 Bft) 97,37 %
24.11.2021 13:18 6,7 C 7,8 C 6,1 C 99 % 1021,8 hPa 0,0 l/m 0 min 0 min 117 W/m 0,0 km/h (0 Bft) 95,92 %
24.11.2021 13:20 6,8 C 7,8 C 6,1 C 99 % 1021,7 hPa 0,0 l/m 0 min 0 min 118 W/m 3,2 km/h (1 Bft) 95,65 %
24.11.2021 13:22 6,8 C 7,8 C 6,1 C 99 % 1021,6 hPa 0,0 l/m 0 min 0 min 118 W/m 6,4 km/h (2 Bft) 94,44 %
24.11.2021 13:24 6,8 C 7,8 C 6,1 C 99 % 1021,6 hPa 0,0 l/m 0 min 0 min 116 W/m 3,2 km/h (1 Bft) 97,37 %
24.11.2021 13:26 6,8 C 7,8 C 6,1 C 99 % 1021,6 hPa 0,0 l/m 0 min 0 min 116 W/m 3,2 km/h (1 Bft) 97,96 %
24.11.2021 13:28 6,8 C 7,8 C 6,1 C 99 % 1021,6 hPa 0,0 l/m 0 min 0 min 114 W/m 6,4 km/h (2 Bft) 97,87 %
24.11.2021 13:30 6,8 C 7,8 C 6,1 C 99 % 1021,5 hPa 0,0 l/m 0 min 0 min 115 W/m 3,2 km/h (1 Bft) 96,23 %
24.11.2021 13:32 6,8 C 7,8 C 6,1 C 99 % 1021,5 hPa 0,0 l/m 0 min 0 min 116 W/m 3,2 km/h (1 Bft) 97,37 %
24.11.2021 13:34 6,8 C 7,8 C 6,1 C 99 % 1021,5 hPa 0,0 l/m 0 min 0 min 114 W/m 3,2 km/h (1 Bft) 97,96 %
24.11.2021 13:36 6,8 C 7,8 C 6,7 C 99 % 1021,5 hPa 0,0 l/m 0 min 0 min 112 W/m 3,2 km/h (1 Bft) 93,62 %
24.11.2021 13:38 6,9 C 7,8 C 6,1 C 99 % 1021,4 hPa 0,0 l/m 0 min 0 min 110 W/m 3,2 km/h (1 Bft) 97,87 %
24.11.2021 13:40 6,9 C 7,8 C 6,1 C 99 % 1021,4 hPa 0,0 l/m 0 min 0 min 107 W/m 3,2 km/h (1 Bft) 95,74 %
24.11.2021 13:42 6,9 C 7,8 C 6,1 C 99 % 1021,4 hPa 0,0 l/m 0 min 0 min 105 W/m 3,2 km/h (1 Bft) 100,00 %
24.11.2021 13:44 6,9 C 7,8 C 6,1 C 99 % 1021,4 hPa 0,0 l/m 0 min 0 min 105 W/m 6,4 km/h (2 Bft) 97,83 %
24.11.2021 13:46 6,9 C 7,8 C 6,1 C 99 % 1021,3 hPa 0,0 l/m 0 min 0 min 105 W/m 3,2 km/h (1 Bft) 100,00 %
24.11.2021 13:48 6,9 C 7,8 C 6,1 C 99 % 1021,3 hPa 0,0 l/m 0 min 0 min 101 W/m 3,2 km/h (1 Bft) 97,87 %
24.11.2021 13:50 6,9 C 7,8 C 6,1 C 99 % 1021,3 hPa 0,0 l/m 0 min 0 min 97 W/m 3,2 km/h (1 Bft) 95,74 %
24.11.2021 13:52 6,9 C 7,8 C 6,1 C 99 % 1021,2 hPa 0,0 l/m 0 min 0 min 95 W/m 3,2 km/h (1 Bft) 97,87 %
24.11.2021 13:54 6,9 C 7,8 C 6,1 C 99 % 1021,2 hPa 0,0 l/m 0 min 0 min 95 W/m 9,7 km/h (2 Bft) 93,48 %
24.11.2021 13:56 6,9 C 7,8 C 6,1 C 99 % 1021,1 hPa 0,0 l/m 0 min 0 min 91 W/m 6,4 km/h (2 Bft) 97,87 %
24.11.2021 13:58 6,9 C 7,2 C 6,1 C 99 % 1021,1 hPa 0,0 l/m 0 min 0 min 86 W/m 6,4 km/h (2 Bft) 95,74 %
24.11.2021 14:00 6,9 C 7,2 C 6,1 C 99 % 1021,0 hPa 0,0 l/m 0 min 0 min 87 W/m 9,7 km/h (2 Bft) 93,62 %
24.11.2021 14:02 6,9 C 7,2 C 6,1 C 99 % 1021,0 hPa 0,0 l/m 0 min 0 min 89 W/m 9,7 km/h (2 Bft) 95,74 %
24.11.2021 14:04 6,8 C 7,2 C 6,1 C 98 % 1021,0 hPa 0,0 l/m 0 min 0 min 86 W/m 3,2 km/h (1 Bft) 95,74 %
24.11.2021 14:06 6,9 C 7,2 C 6,1 C 98 % 1020,9 hPa 0,0 l/m 0 min 0 min 84 W/m 3,2 km/h (1 Bft) 95,65 %
24.11.2021 14:08 6,9 C 7,2 C 6,1 C 98 % 1020,9 hPa 0,0 l/m 0 min 0 min 84 W/m 6,4 km/h (2 Bft) 95,74 %
24.11.2021 14:10 6,9 C 7,2 C 6,1 C 99 % 1020,9 hPa 0,0 l/m 0 min 0 min 83 W/m 3,2 km/h (1 Bft) 93,62 %
24.11.2021 14:12 6,9 C 7,2 C 6,1 C 98 % 1020,9 hPa 0,0 l/m 0 min 0 min 79 W/m 6,4 km/h (2 Bft) 95,74 %
24.11.2021 14:14 6,9 C 7,2 C 6,1 C 98 % 1020,9 hPa 0,0 l/m 0 min 0 min 76 W/m 6,4 km/h (2 Bft) 97,87 %
24.11.2021 14:16 6,8 C 7,2 C 6,1 C 98 % 1020,9 hPa 0,0 l/m 0 min 0 min 74 W/m 6,4 km/h (2 Bft) 100,00 %
24.11.2021 14:18 6,8 C 7,2 C 6,1 C 98 % 1020,9 hPa 0,0 l/m 0 min 0 min 72 W/m 6,4 km/h (2 Bft) 97,83 %
24.11.2021 14:20 6,8 C 7,2 C 6,1 C 98 % 1020,8 hPa 0,0 l/m 0 min 0 min 70 W/m 3,2 km/h (1 Bft) 95,74 %
24.11.2021 14:25 6,8 C 7,2 C 6,1 C 98 % 1020,8 hPa 0,0 l/m 0 min 0 min 67 W/m 6,4 km/h (2 Bft) 97,50 %
24.11.2021 14:26 6,8 C 7,2 C 6,1 C 98 % 1020,8 hPa 0,0 l/m 0 min 0 min 70 W/m 6,4 km/h (2 Bft) 100,00 %
24.11.2021 14:28 6,8 C 7,2 C 6,7 C 98 % 1020,8 hPa 0,0 l/m 0 min 0 min 73 W/m 6,4 km/h (2 Bft) 97,87 %
24.11.2021 14:30 6,9 C 7,2 C 6,7 C 98 % 1020,8 hPa 0,0 l/m 0 min 0 min 77 W/m 3,2 km/h (1 Bft) 97,83 %
24.11.2021 14:32 6,9 C 7,2 C 6,7 C 98 % 1020,7 hPa 0,0 l/m 0 min 0 min 79 W/m 3,2 km/h (1 Bft) 97,87 %
24.11.2021 14:34 6,9 C 7,2 C 6,7 C 98 % 1020,7 hPa 0,0 l/m 0 min 0 min 77 W/m 6,4 km/h (2 Bft) 96,97 %
24.11.2021 14:36 6,9 C 7,2 C 6,7 C 98 % 1020,7 hPa 0,0 l/m 0 min 0 min 77 W/m 6,4 km/h (2 Bft) 100,00 %
24.11.2021 14:38 6,9 C 7,2 C 6,1 C 98 % 1020,7 hPa 0,0 l/m 0 min 0 min 75 W/m 6,4 km/h (2 Bft) 100,00 %
24.11.2021 14:40 6,9 C 7,2 C 6,1 C 98 % 1020,6 hPa 0,0 l/m 0 min 0 min 72 W/m 6,4 km/h (2 Bft) 100,00 %
24.11.2021 14:42 6,9 C 7,2 C 6,1 C 98 % 1020,6 hPa 0,0 l/m 0 min 0 min 72 W/m 3,2 km/h (1 Bft) 100,00 %
24.11.2021 14:44 6,9 C 7,2 C 6,1 C 98 % 1020,5 hPa 0,0 l/m 0 min 0 min 69 W/m 6,4 km/h (2 Bft) 100,00 %
24.11.2021 14:46 6,9 C 7,2 C 6,1 C 97 % 1020,6 hPa 0,0 l/m 0 min 0 min 65 W/m 3,2 km/h (1 Bft) 100,00 %
24.11.2021 14:48 6,9 C 7,2 C 6,1 C 97 % 1020,5 hPa 0,0 l/m 0 min 0 min 61 W/m 6,4 km/h (2 Bft) 100,00 %
24.11.2021 14:50 6,9 C 7,2 C 6,1 C 98 % 1020,6 hPa 0,0 l/m 0 min 0 min 57 W/m 3,2 km/h (1 Bft) 100,00 %
24.11.2021 14:52 6,9 C 7,2 C 6,1 C 97 % 1020,5 hPa 0,0 l/m 0 min 0 min 54 W/m 6,4 km/h (2 Bft) 97,87 %
24.11.2021 14:54 6,9 C 7,2 C 6,1 C 97 % 1020,5 hPa 0,0 l/m 0 min 0 min 53 W/m 6,4 km/h (2 Bft) 100,00 %
24.11.2021 14:56 6,9 C 7,2 C 6,1 C 97 % 1020,4 hPa 0,0 l/m 0 min 0 min 47 W/m 6,4 km/h (2 Bft) 100,00 %
24.11.2021 14:58 6,9 C 7,2 C 6,1 C 97 % 1020,4 hPa 0,0 l/m 0 min 0 min 43 W/m 3,2 km/h (1 Bft) 100,00 %
24.11.2021 15:00 6,9 C 7,2 C 6,1 C 97 % 1020,5 hPa 0,0 l/m 0 min 0 min 39 W/m 3,2 km/h (1 Bft) 100,00 %
24.11.2021 15:02 6,9 C 7,2 C 6,1 C 97 % 1020,5 hPa 0,0 l/m 0 min 0 min 36 W/m 6,4 km/h (2 Bft) 97,87 %
24.11.2021 15:04 6,9 C 7,2 C 6,1 C 96 % 1020,5 hPa 0,0 l/m 0 min 0 min 33 W/m 6,4 km/h (2 Bft) 100,00 %
24.11.2021 15:06 6,9 C 6,7 C 6,1 C 96 % 1020,4 hPa 0,0 l/m 0 min 0 min 32 W/m 6,4 km/h (2 Bft) 97,87 %
24.11.2021 15:08 6,9 C 6,7 C 6,1 C 96 % 1020,4 hPa 0,0 l/m 0 min 0 min 31 W/m 3,2 km/h (1 Bft) 100,00 %
24.11.2021 15:10 6,9 C 6,7 C 6,1 C 96 % 1020,4 hPa 0,0 l/m 0 min 0 min 28 W/m 6,4 km/h (2 Bft) 100,00 %
24.11.2021 15:12 6,9 C 6,7 C 6,1 C 96 % 1020,4 hPa 0,0 l/m 0 min 0 min 28 W/m 3,2 km/h (1 Bft) 100,00 %
24.11.2021 15:14 6,9 C 6,7 C 6,1 C 96 % 1020,3 hPa 0,0 l/m 0 min 0 min 27 W/m 3,2 km/h (1 Bft) 97,87 %
24.11.2021 15:16 6,9 C 6,7 C 6,1 C 96 % 1020,3 hPa 0,0 l/m 0 min 0 min 26 W/m 6,4 km/h (2 Bft) 100,00 %
24.11.2021 15:18 6,9 C 6,7 C 6,1 C 95 % 1020,3 hPa 0,0 l/m 0 min 0 min 24 W/m 3,2 km/h (1 Bft) 100,00 %
24.11.2021 15:20 6,9 C 6,7 C 6,1 C 95 % 1020,2 hPa 0,0 l/m 0 min 0 min 24 W/m 3,2 km/h (1 Bft) 100,00 %
24.11.2021 15:22 6,9 C 6,7 C 6,1 C 95 % 1020,2 hPa 0,0 l/m 0 min 0 min 25 W/m 6,4 km/h (2 Bft) 100,00 %
24.11.2021 15:24 6,8 C 6,7 C 6,1 C 95 % 1020,1 hPa 0,0 l/m 0 min 0 min 25 W/m 3,2 km/h (1 Bft) 97,87 %
24.11.2021 15:26 6,8 C 6,7 C 6,1 C 94 % 1020,1 hPa 0,0 l/m 0 min 0 min 24 W/m 6,4 km/h (2 Bft) 100,00 %
24.11.2021 15:28 6,8 C 6,7 C 6,1 C 94 % 1020,1 hPa 0,0 l/m 0 min 0 min 23 W/m 6,4 km/h (2 Bft) 100,00 %
24.11.2021 15:30 6,8 C 6,7 C 5,6 C 94 % 1020,0 hPa 0,0 l/m 0 min 0 min 23 W/m 3,2 km/h (1 Bft) 100,00 %
24.11.2021 15:32 6,8 C 6,7 C 5,6 C 93 % 1020,0 hPa 0,0 l/m 0 min 0 min 23 W/m 6,4 km/h (2 Bft) 100,00 %
24.11.2021 15:34 6,8 C 6,7 C 5,6 C 93 % 1019,9 hPa 0,0 l/m 0 min 0 min 23 W/m 6,4 km/h (2 Bft) 96,30 %
24.11.2021 15:36 6,7 C 6,7 C 5,6 C 93 % 1019,8 hPa 0,0 l/m 0 min 0 min 23 W/m 6,4 km/h (2 Bft) 100,00 %
24.11.2021 15:38 6,7 C 6,7 C 5,6 C 92 % 1019,8 hPa 0,0 l/m 0 min 0 min 22 W/m 12,9 km/h (3 Bft) 95,74 %
24.11.2021 15:40 6,7 C 6,7 C 5,6 C 92 % 1019,8 hPa 0,0 l/m 0 min 0 min 21 W/m 6,4 km/h (2 Bft) 95,65 %
24.11.2021 15:42 6,7 C 6,7 C 5,6 C 92 % 1019,7 hPa 0,0 l/m 0 min 0 min 21 W/m 3,2 km/h (1 Bft) 93,88 %
24.11.2021 15:44 6,7 C 6,7 C 5,6 C 91 % 1019,7 hPa 0,0 l/m 0 min 0 min 19 W/m 3,2 km/h (1 Bft) 97,87 %
24.11.2021 15:46 6,7 C 6,7 C 5,6 C 91 % 1019,6 hPa 0,0 l/m 0 min 0 min 19 W/m 3,2 km/h (1 Bft) 96,30 %
24.11.2021 15:48 6,6 C 6,7 C 5,6 C 90 % 1019,6 hPa 0,0 l/m 0 min 0 min 18 W/m 3,2 km/h (1 Bft) 97,37 %
24.11.2021 15:50 6,6 C 6,7 C 5,6 C 90 % 1019,5 hPa 0,0 l/m 0 min 0 min 18 W/m 3,2 km/h (1 Bft) 97,96 %
24.11.2021 15:52 6,6 C 6,7 C 5,6 C 90 % 1019,5 hPa 0,0 l/m 0 min 0 min 18 W/m 3,2 km/h (1 Bft) 95,65 %
24.11.2021 15:54 6,6 C 6,7 C 5,6 C 89 % 1019,5 hPa 0,0 l/m 0 min 0 min 17 W/m 12,9 km/h (3 Bft) 94,44 %
24.11.2021 15:56 6,6 C 6,7 C 5,6 C 88 % 1019,5 hPa 0,0 l/m 0 min 0 min 16 W/m 6,4 km/h (2 Bft) 94,74 %
24.11.2021 15:58 6,6 C 6,7 C 5,6 C 88 % 1019,4 hPa 0,0 l/m 0 min 0 min 15 W/m 3,2 km/h (1 Bft) 95,92 %
24.11.2021 16:00 6,6 C 6,7 C 5,6 C 88 % 1019,4 hPa 0,0 l/m 0 min 0 min 13 W/m 0,0 km/h (0 Bft) 95,74 %
24.11.2021 16:02 6,6 C 6,7 C 5,6 C 87 % 1019,5 hPa 0,0 l/m 0 min 0 min 12 W/m 3,2 km/h (1 Bft) 92,45 %
24.11.2021 16:04 6,6 C 6,7 C 5,6 C 87 % 1019,4 hPa 0,0 l/m 0 min 0 min 12 W/m 3,2 km/h (1 Bft) 92,11 %
24.11.2021 16:06 6,6 C 6,1 C 5,6 C 87 % 1019,4 hPa 0,0 l/m 0 min 0 min 12 W/m 6,4 km/h (2 Bft) 95,74 %
24.11.2021 16:08 6,6 C 6,1 C 5,6 C 87 % 1019,4 hPa 0,0 l/m 0 min 0 min 11 W/m 6,4 km/h (2 Bft) 95,92 %
24.11.2021 16:10 6,6 C 6,1 C 5,6 C 86 % 1019,4 hPa 0,0 l/m 0 min 0 min 11 W/m 6,4 km/h (2 Bft) 93,62 %
24.11.2021 16:12 6,6 C 6,1 C 5,0 C 86 % 1019,3 hPa 0,0 l/m 0 min 0 min 10 W/m 6,4 km/h (2 Bft) 91,49 %
24.11.2021 16:14 6,6 C 6,1 C 5,0 C 86 % 1019,3 hPa 0,0 l/m 0 min 0 min 9 W/m 3,2 km/h (1 Bft) 96,23 %
24.11.2021 16:16 6,6 C 6,1 C 5,0 C 85 % 1019,2 hPa 0,0 l/m 0 min 0 min 8 W/m 6,4 km/h (2 Bft) 94,74 %
24.11.2021 16:18 6,6 C 6,1 C 5,0 C 85 % 1019,2 hPa 0,0 l/m 0 min 0 min 7 W/m 3,2 km/h (1 Bft) 93,88 %
24.11.2021 16:20 6,6 C 6,1 C 5,0 C 85 % 1019,2 hPa 0,0 l/m 0 min 0 min 7 W/m 3,2 km/h (1 Bft) 95,74 %
24.11.2021 16:22 6,6 C 6,1 C 5,0 C 85 % 1019,2 hPa 0,0 l/m 0 min 0 min 7 W/m 6,4 km/h (2 Bft) 94,44 %
24.11.2021 16:24 6,6 C 6,1 C 5,0 C 85 % 1019,2 hPa 0,0 l/m 0 min 0 min 5 W/m 6,4 km/h (2 Bft) 97,37 %
24.11.2021 16:26 6,6 C 6,1 C 5,0 C 85 % 1019,2 hPa 0,0 l/m 0 min 0 min 5 W/m 3,2 km/h (1 Bft) 100,00 %
24.11.2021 16:28 6,6 C 6,1 C 5,0 C 85 % 1019,1 hPa 0,0 l/m 0 min 0 min 5 W/m 3,2 km/h (1 Bft) 97,87 %
24.11.2021 16:30 6,6 C 6,1 C 5,0 C 85 % 1019,1 hPa 0,0 l/m 0 min 0 min 1 W/m 3,2 km/h (1 Bft) 96,30 %
24.11.2021 16:32 6,6 C 6,1 C 5,0 C 84 % 1019,0 hPa 0,0 l/m 0 min 0 min 0 W/m 3,2 km/h (1 Bft) 97,37 %
24.11.2021 16:34 6,6 C 6,1 C 5,0 C 84 % 1019,0 hPa 0,0 l/m 0 min 0 min 0 W/m 0,0 km/h (0 Bft) 97,96 %
24.11.2021 16:36 6,5 C 6,1 C 5,0 C 84 % 1019,0 hPa 0,0 l/m 0 min 0 min 0 W/m 3,2 km/h (1 Bft) 95,74 %
24.11.2021 16:38 6,5 C 6,1 C 5,0 C 84 % 1018,9 hPa 0,0 l/m 0 min 0 min 0 W/m 3,2 km/h (1 Bft) 93,48 %
24.11.2021 16:40 6,5 C 6,1 C 5,0 C 84 % 1018,9 hPa 0,0 l/m 0 min 0 min 0 W/m 0,0 km/h (0 Bft) 98,15 %
24.11.2021 16:42 6,5 C 6,1 C 5,0 C 84 % 1018,9 hPa 0,0 l/m 0 min 0 min 0 W/m 3,2 km/h (1 Bft) 97,37 %
24.11.2021 16:44 6,5 C 6,1 C 5,0 C 84 % 1018,9 hPa 0,0 l/m 0 min 0 min 0 W/m 3,2 km/h (1 Bft) 97,96 %
24.11.2021 16:46 6,5 C 6,1 C 5,0 C 84 % 1018,9 hPa 0,0 l/m 0 min 0 min 0 W/m 3,2 km/h (1 Bft) 95,74 %
24.11.2021 16:48 6,5 C 6,1 C 5,0 C 84 % 1018,9 hPa 0,0 l/m 0 min 0 min 0 W/m 3,2 km/h (1 Bft) 98,11 %
24.11.2021 16:50 6,5 C 6,1 C 5,0 C 84 % 1018,8 hPa 0,0 l/m 0 min 0 min 0 W/m 6,4 km/h (2 Bft) 44,74 %
24.11.2021 16:52 6,5 C 6,1 C 5,0 C 84 % 1018,8 hPa 0,0 l/m 0 min 0 min 0 W/m 3,2 km/h (1 Bft) 97,83 %
24.11.2021 16:54 6,5 C 6,1 C 5,0 C 84 % 1018,7 hPa 0,0 l/m 0 min 0 min 0 W/m 3,2 km/h (1 Bft) 95,74 %
24.11.2021 16:56 6,5 C 5,6 C 5,0 C 84 % 1018,7 hPa 0,0 l/m 0 min 0 min 0 W/m 3,2 km/h (1 Bft) 96,30 %
24.11.2021 16:58 6,4 C 5,6 C 4,4 C 84 % 1018,7 hPa 0,0 l/m 0 min 0 min 0 W/m 3,2 km/h (1 Bft) 97,37 %
24.11.2021 17:00 6,4 C 5,6 C 4,4 C 84 % 1018,7 hPa 0,0 l/m 0 min 0 min 0 W/m 0,0 km/h (0 Bft) 97,92 %
24.11.2021 17:02 6,4 C 5,6 C 4,4 C 84 % 1018,6 hPa 0,0 l/m 0 min 0 min 0 W/m 3,2 km/h (1 Bft) 97,87 %
24.11.2021 17:04 6,4 C 5,6 C 4,4 C 84 % 1018,6 hPa 0,0 l/m 0 min 0 min 0 W/m 0,0 km/h (0 Bft) 98,15 %
24.11.2021 17:06 6,4 C 5,6 C 4,4 C 84 % 1018,5 hPa 0,0 l/m 0 min 0 min 0 W/m 6,4 km/h (2 Bft) 97,37 %
24.11.2021 17:08 6,4 C 5,6 C 4,4 C 84 % 1018,5 hPa 0,0 l/m 0 min 0 min 0 W/m 3,2 km/h (1 Bft) 97,87 %
24.11.2021 17:10 6,4 C 5,6 C 4,4 C 84 % 1018,5 hPa 0,0 l/m 0 min 0 min 0 W/m 3,2 km/h (1 Bft) 97,87 %
24.11.2021 17:12 6,4 C 5,6 C 4,4 C 84 % 1018,5 hPa 0,0 l/m 0 min 0 min 0 W/m 0,0 km/h (0 Bft) 100,00 %
24.11.2021 17:14 6,4 C 5,6 C 4,4 C 83 % 1018,4 hPa 0,0 l/m 0 min 0 min 0 W/m 0,0 km/h (0 Bft) 100,00 %
24.11.2021 17:16 6,3 C 5,6 C 4,4 C 84 % 1018,4 hPa 0,0 l/m 0 min 0 min 0 W/m 3,2 km/h (1 Bft) 100,00 %
24.11.2021 17:18 6,3 C 5,6 C 4,4 C 83 % 1018,4 hPa 0,0 l/m 0 min 0 min 0 W/m 3,2 km/h (1 Bft) 100,00 %
24.11.2021 17:20 6,3 C 5,6 C 4,4 C 84 % 1018,4 hPa 0,0 l/m 0 min 0 min 0 W/m 0,0 km/h (0 Bft) 100,00 %
24.11.2021 17:22 6,3 C 5,6 C 4,4 C 84 % 1018,4 hPa 0,0 l/m 0 min 0 min 0 W/m 0,0 km/h (0 Bft) 97,87 %
24.11.2021 17:24 6,3 C 5,6 C 4,4 C 83 % 1018,4 hPa 0,0 l/m 0 min 0 min 0 W/m 3,2 km/h (1 Bft) 100,00 %
24.11.2021 17:26 6,3 C 5,6 C 4,4 C 83 % 1018,4 hPa 0,0 l/m 0 min 0 min 0 W/m 3,2 km/h (1 Bft) 100,00 %
24.11.2021 17:28 6,3 C 5,6 C 4,4 C 83 % 1018,4 hPa 0,0 l/m 0 min 0 min 0 W/m 3,2 km/h (1 Bft) 100,00 %
24.11.2021 17:30 6,2 C 5,6 C 4,4 C 84 % 1018,3 hPa 0,0 l/m 0 min 0 min 0 W/m 0,0 km/h (0 Bft) 100,00 %
24.11.2021 17:32 6,2 C 5,6 C 3,9 C 84 % 1018,4 hPa 0,0 l/m 0 min 0 min 0 W/m 3,2 km/h (1 Bft) 100,00 %
24.11.2021 17:34 6,2 C 5,0 C 3,9 C 84 % 1018,3 hPa 0,0 l/m 0 min 0 min 0 W/m 0,0 km/h (0 Bft) 100,00 %
24.11.2021 17:36 6,1 C 5,0 C 3,9 C 84 % 1018,3 hPa 0,0 l/m 0 min 0 min 0 W/m 0,0 km/h (0 Bft) 95,83 %
24.11.2021 17:38 6,1 C 5,0 C 3,9 C 84 % 1018,2 hPa 0,0 l/m 0 min 0 min 0 W/m 3,2 km/h (1 Bft) 100,00 %
24.11.2021 17:40 6,1 C 5,0 C 3,9 C 84 % 1018,3 hPa 0,0 l/m 0 min 0 min 0 W/m 0,0 km/h (0 Bft) 100,00 %
24.11.2021 17:42 6,1 C 5,0 C 3,9 C 84 % 1018,2 hPa 0,0 l/m 0 min 0 min 0 W/m 0,0 km/h (0 Bft) 100,00 %
24.11.2021 17:44 6,0 C 5,0 C 3,9 C 84 % 1018,2 hPa 0,0 l/m 0 min 0 min 0 W/m 3,2 km/h (1 Bft) 97,37 %
24.11.2021 17:46 6,0 C 5,0 C 3,9 C 84 % 1018,2 hPa 0,0 l/m 0 min 0 min 0 W/m 3,2 km/h (1 Bft) 97,96 %
24.11.2021 17:48 6,0 C 5,0 C 3,3 C 84 % 1018,2 hPa 0,0 l/m 0 min 0 min 0 W/m 3,2 km/h (1 Bft) 97,83 %
24.11.2021 17:50 6,0 C 4,4 C 3,3 C 84 % 1018,2 hPa 0,0 l/m 0 min 0 min 0 W/m 3,2 km/h (1 Bft) 98,15 %
24.11.2021 17:52 5,9 C 4,4 C 3,3 C 84 % 1018,2 hPa 0,0 l/m 0 min 0 min 0 W/m 3,2 km/h (1 Bft) 97,37 %
24.11.2021 17:54 5,9 C 4,4 C 3,3 C 84 % 1018,2 hPa 0,0 l/m 0 min 0 min 0 W/m 0,0 km/h (0 Bft) 95,92 %
24.11.2021 17:56 5,8 C 4,4 C 3,3 C 85 % 1018,2 hPa 0,0 l/m 0 min 0 min 0 W/m 0,0 km/h (0 Bft) 95,74 %
24.11.2021 17:58 5,8 C 4,4 C 2,8 C 85 % 1018,2 hPa 0,0 l/m 0 min 0 min 0 W/m 3,2 km/h (1 Bft) 96,23 %
24.11.2021 18:00 5,8 C 3,9 C 2,8 C 85 % 1018,2 hPa 0,0 l/m 0 min 0 min 0 W/m 3,2 km/h (1 Bft) 94,74 %
24.11.2021 18:02 5,7 C 3,9 C 2,8 C 85 % 1018,2 hPa 0,0 l/m 0 min 0 min 0 W/m 3,2 km/h (1 Bft) 95,92 %
24.11.2021 18:04 5,6 C 3,9 C 2,8 C 85 % 1018,2 hPa 0,0 l/m 0 min 0 min 0 W/m 3,2 km/h (1 Bft) 97,87 %
24.11.2021 18:06 5,6 C 3,9 C 2,8 C 85 % 1018,2 hPa 0,0 l/m 0 min 0 min 0 W/m 3,2 km/h (1 Bft) 98,15 %
24.11.2021 18:08 5,6 C 3,9 C 2,8 C 85 % 1018,1 hPa 0,0 l/m 0 min 0 min 0 W/m 3,2 km/h (1 Bft) 97,37 %
24.11.2021 18:10 5,5 C 3,9 C 2,8 C 85 % 1018,2 hPa 0,0 l/m 0 min 0 min 0 W/m 3,2 km/h (1 Bft) 95,83 %
24.11.2021 18:12 5,5 C 4,4 C 2,8 C 85 % 1018,1 hPa 0,0 l/m 0 min 0 min 0 W/m 3,2 km/h (1 Bft) 97,87 %
24.11.2021 18:14 5,4 C 4,4 C 2,8 C 85 % 1018,1 hPa 0,0 l/m 0 min 0 min 0 W/m 6,4 km/h (2 Bft) 97,87 %
24.11.2021 18:16 5,4 C 4,4 C 3,3 C 85 % 1018,0 hPa 0,0 l/m 0 min 0 min 0 W/m 6,4 km/h (2 Bft) 98,15 %
24.11.2021 18:18 5,3 C 4,4 C 3,3 C 85 % 1018,0 hPa 0,0 l/m 0 min 0 min 0 W/m 3,2 km/h (1 Bft) 100,00 %
24.11.2021 18:20 5,3 C 4,4 C 3,3 C 85 % 1017,9 hPa 0,0 l/m 0 min 0 min 0 W/m 3,2 km/h (1 Bft) 100,00 %
24.11.2021 18:22 5,2 C 4,4 C 3,3 C 85 % 1017,9 hPa 0,0 l/m 0 min 0 min 0 W/m 0,0 km/h (0 Bft) 100,00 %
24.11.2021 18:24 5,2 C 4,4 C 3,3 C 85 % 1017,8 hPa 0,0 l/m 0 min 0 min 0 W/m 3,2 km/h (1 Bft) 98,15 %
24.11.2021 18:26 5,1 C 4,4 C 3,3 C 86 % 1017,8 hPa 0,0 l/m 0 min 0 min 0 W/m 3,2 km/h (1 Bft) 97,37 %
24.11.2021 18:28 5,1 C 4,4 C 2,8 C 85 % 1017,7 hPa 0,0 l/m 0 min 0 min 0 W/m 3,2 km/h (1 Bft) 100,00 %
24.11.2021 18:30 5,1 C 4,4 C 2,8 C 85 % 1017,7 hPa 0,0 l/m 0 min 0 min 0 W/m 3,2 km/h (1 Bft) 100,00 %
24.11.2021 18:32 5,1 C 3,9 C 2,8 C 85 % 1017,7 hPa 0,0 l/m 0 min 0 min 0 W/m 3,2 km/h (1 Bft) 100,00 %
24.11.2021 18:34 5,0 C 3,9 C 2,8 C 85 % 1017,7 hPa 0,0 l/m 0 min 0 min 0 W/m 3,2 km/h (1 Bft) 93,48 %
24.11.2021 18:36 5,0 C 3,9 C 2,8 C 85 % 1017,6 hPa 0,0 l/m 0 min 0 min 0 W/m 0,0 km/h (0 Bft) 100,00 %
24.11.2021 18:38 5,0 C 3,9 C 2,8 C 85 % 1017,6 hPa 0,0 l/m 0 min 0 min 0 W/m 0,0 km/h (0 Bft) 100,00 %
24.11.2021 18:40 5,0 C 3,9 C 2,8 C 86 % 1017,7 hPa 0,0 l/m 0 min 0 min 0 W/m 3,2 km/h (1 Bft) 95,92 %
24.11.2021 18:42 5,0 C 3,9 C 2,8 C 86 % 1017,6 hPa 0,0 l/m 0 min 0 min 0 W/m 3,2 km/h (1 Bft) 97,87 %
24.11.2021 18:44 4,9 C 3,9 C 2,8 C 86 % 1017,6 hPa 0,0 l/m 0 min 0 min 0 W/m 3,2 km/h (1 Bft) 98,11 %
24.11.2021 18:46 4,9 C 3,9 C 2,8 C 86 % 1017,6 hPa 0,0 l/m 0 min 0 min 0 W/m 3,2 km/h (1 Bft) 97,37 %
24.11.2021 18:48 4,9 C 3,9 C 2,8 C 86 % 1017,6 hPa 0,0 l/m 0 min 0 min 0 W/m 6,4 km/h (2 Bft) 93,88 %
24.11.2021 18:50 4,9 C 3,9 C 2,8 C 86 % 1017,7 hPa 0,0 l/m 0 min 0 min 0 W/m 3,2 km/h (1 Bft) 97,87 %
24.11.2021 18:52 4,8 C 3,9 C 2,8 C 86 % 1017,6 hPa 0,0 l/m 0 min 0 min 0 W/m 3,2 km/h (1 Bft) 96,30 %
24.11.2021 18:54 4,8 C 3,9 C 2,8 C 86 % 1017,6 hPa 0,0 l/m 0 min 0 min 0 W/m 3,2 km/h (1 Bft) 94,74 %
24.11.2021 18:56 4,8 C 3,9 C 2,8 C 86 % 1017,6 hPa 0,0 l/m 0 min 0 min 0 W/m 3,2 km/h (1 Bft) 95,83 %
24.11.2021 18:58 4,8 C 4,4 C 2,8 C 86 % 1017,5 hPa 0,0 l/m 0 min 0 min 0 W/m 0,0 km/h (0 Bft) 95,74 %
24.11.2021 19:00 4,7 C 4,4 C 2,8 C 87 % 1017,6 hPa 0,0 l/m 0 min 0 min 0 W/m 3,2 km/h (1 Bft) 96,30 %
24.11.2021 19:02 4,7 C 4,4 C 2,8 C 87 % 1017,6 hPa 0,0 l/m 0 min 0 min 0 W/m 0,0 km/h (0 Bft) 94,74 %
24.11.2021 19:04 4,7 C 4,4 C 2,8 C 87 % 1017,5 hPa 0,0 l/m 0 min 0 min 0 W/m 0,0 km/h (0 Bft) 95,92 %
24.11.2021 19:06 4,7 C 4,4 C 2,8 C 87 % 1017,5 hPa 0,0 l/m 0 min 0 min 0 W/m 0,0 km/h (0 Bft) 93,62 %
24.11.2021 19:08 4,8 C 4,4 C 2,8 C 87 % 1017,5 hPa 0,0 l/m 0 min 0 min 0 W/m 0,0 km/h (0 Bft) 94,34 %
24.11.2021 19:10 4,8 C 4,4 C 2,8 C 87 % 1017,4 hPa 0,0 l/m 0 min 0 min 0 W/m 0,0 km/h (0 Bft) 95,74 %
24.11.2021 19:12 4,8 C 4,4 C 2,8 C 87 % 1017,4 hPa 0,0 l/m 0 min 0 min 0 W/m 0,0 km/h (0 Bft) 94,74 %
24.11.2021 19:14 4,8 C 4,4 C 2,8 C 87 % 1017,4 hPa 0,0 l/m 0 min 0 min 0 W/m 0,0 km/h (0 Bft) 95,92 %
24.11.2021 19:16 4,8 C 4,4 C 2,8 C 87 % 1017,4 hPa 0,0 l/m 0 min 0 min 0 W/m 0,0 km/h (0 Bft) 95,74 %
24.11.2021 19:18 4,8 C 4,4 C 2,8 C 87 % 1017,4 hPa 0,0 l/m 0 min 0 min 0 W/m 0,0 km/h (0 Bft) 96,30 %
24.11.2021 19:20 4,8 C 4,4 C 2,8 C 87 % 1017,4 hPa 0,0 l/m 0 min 0 min 0 W/m 3,2 km/h (1 Bft) 91,30 %
24.11.2021 19:22 4,8 C 4,4 C 2,8 C 87 % 1017,4 hPa 0,0 l/m 0 min 0 min 0 W/m 0,0 km/h (0 Bft) 97,37 %
24.11.2021 19:24 4,8 C 4,4 C 2,8 C 87 % 1017,4 hPa 0,0 l/m 0 min 0 min 0 W/m 0,0 km/h (0 Bft) 93,88 %
24.11.2021 19:26 4,9 C 4,4 C 2,8 C 87 % 1017,4 hPa 0,0 l/m 0 min 0 min 0 W/m 3,2 km/h (1 Bft) 95,74 %
24.11.2021 19:28 4,9 C 4,4 C 2,8 C 87 % 1017,3 hPa 0,0 l/m 0 min 0 min 0 W/m 3,2 km/h (1 Bft) 92,59 %
24.11.2021 19:30 4,9 C 4,4 C 3,3 C 87 % 1017,3 hPa 0,0 l/m 0 min 0 min 0 W/m 3,2 km/h (1 Bft) 97,87 %
24.11.2021 19:32 4,9 C 5,0 C 3,3 C 87 % 1017,3 hPa 0,0 l/m 0 min 0 min 0 W/m 3,2 km/h (1 Bft) 94,59 %
24.11.2021 19:34 4,9 C 4,4 C 3,3 C 87 % 1017,2 hPa 0,0 l/m 0 min 0 min 0 W/m 6,4 km/h (2 Bft) 97,96 %
24.11.2021 19:36 4,9 C 4,4 C 3,3 C 87 % 1017,2 hPa 0,0 l/m 0 min 0 min 0 W/m 3,2 km/h (1 Bft) 95,74 %
24.11.2021 19:38 4,9 C 5,0 C 3,3 C 87 % 1017,2 hPa 0,0 l/m 0 min 0 min 0 W/m 3,2 km/h (1 Bft) 94,44 %
24.11.2021 19:40 4,9 C 4,4 C 3,3 C 87 % 1017,2 hPa 0,0 l/m 0 min 0 min 0 W/m 3,2 km/h (1 Bft) 97,87 %
24.11.2021 19:42 4,9 C 5,0 C 3,3 C 87 % 1017,2 hPa 0,0 l/m 0 min 0 min 0 W/m 0,0 km/h (0 Bft) 97,37 %
24.11.2021 19:44 4,9 C 5,0 C 3,3 C 87 % 1017,2 hPa 0,0 l/m 0 min 0 min 0 W/m 3,2 km/h (1 Bft) 97,92 %
24.11.2021 19:46 5,0 C 4,4 C 3,3 C 87 % 1017,1 hPa 0,0 l/m 0 min 0 min 0 W/m 3,2 km/h (1 Bft) 95,74 %
24.11.2021 19:48 5,0 C 4,4 C 3,3 C 87 % 1017,1 hPa 0,0 l/m 0 min 0 min 0 W/m 3,2 km/h (1 Bft) 95,74 %
24.11.2021 19:50 5,0 C 4,4 C 3,3 C 87 % 1017,1 hPa 0,0 l/m 0 min 0 min 0 W/m 3,2 km/h (1 Bft) 94,44 %
24.11.2021 19:52 5,0 C 4,4 C 2,8 C 86 % 1017,1 hPa 0,0 l/m 0 min 0 min 0 W/m 3,2 km/h (1 Bft) 100,00 %
24.11.2021 19:54 5,0 C 4,4 C 2,8 C 86 % 1017,1 hPa 0,0 l/m 0 min 0 min 0 W/m 0,0 km/h (0 Bft) 95,92 %
24.11.2021 19:56 5,0 C 4,4 C 2,8 C 87 % 1017,1 hPa 0,0 l/m 0 min 0 min 0 W/m 0,0 km/h (0 Bft) 95,65 %
24.11.2021 19:58 5,0 C 4,4 C 2,8 C 87 % 1017,1 hPa 0,0 l/m 0 min 0 min 0 W/m 0,0 km/h (0 Bft) 98,15 %
24.11.2021 20:00 5,0 C 4,4 C 2,8 C 87 % 1017,1 hPa 0,0 l/m 0 min 0 min 0 W/m 0,0 km/h (0 Bft) 97,37 %
24.11.2021 20:02 5,0 C 4,4 C 2,8 C 87 % 1017,0 hPa 0,0 l/m 0 min 0 min 0 W/m 0,0 km/h (0 Bft) 97,96 %
24.11.2021 20:04 5,0 C 4,4 C 2,8 C 86 % 1017,0 hPa 0,0 l/m 0 min 0 min 0 W/m 3,2 km/h (1 Bft) 97,87 %
24.11.2021 20:06 5,0 C 4,4 C 2,8 C 86 % 1016,9 hPa 0,0 l/m 0 min 0 min 0 W/m 6,4 km/h (2 Bft) 100,00 %
24.11.2021 20:08 5,0 C 4,4 C 2,8 C 86 % 1016,9 hPa 0,0 l/m 0 min 0 min 0 W/m 3,2 km/h (1 Bft) 97,37 %
24.11.2021 20:10 5,0 C 4,4 C 2,8 C 86 % 1016,9 hPa 0,0 l/m 0 min 0 min 0 W/m 3,2 km/h (1 Bft) 100,00 %
24.11.2021 20:12 5,0 C 4,4 C 2,8 C 86 % 1016,9 hPa 0,0 l/m 0 min 0 min 0 W/m 3,2 km/h (1 Bft) 100,00 %
24.11.2021 20:14 5,0 C 4,4 C 2,8 C 86 % 1016,9 hPa 0,0 l/m 0 min 0 min 0 W/m 3,2 km/h (1 Bft) 100,00 %
24.11.2021 20:16 5,0 C 4,4 C 2,8 C 86 % 1016,9 hPa 0,0 l/m 0 min 0 min 0 W/m 3,2 km/h (1 Bft) 100,00 %
24.11.2021 20:18 5,0 C 4,4 C 2,8 C 86 % 1016,8 hPa 0,0 l/m 0 min 0 min 0 W/m 3,2 km/h (1 Bft) 100,00 %
24.11.2021 20:20 5,0 C 4,4 C 2,8 C 86 % 1016,8 hPa 0,0 l/m 0 min 0 min 0 W/m 3,2 km/h (1 Bft) 100,00 %
24.11.2021 20:22 5,0 C 4,4 C 2,8 C 86 % 1016,9 hPa 0,0 l/m 0 min 0 min 0 W/m 3,2 km/h (1 Bft) 97,87 %
24.11.2021 20:24 5,0 C 4,4 C 2,8 C 86 % 1016,9 hPa 0,0 l/m 0 min 0 min 0 W/m 3,2 km/h (1 Bft) 100,00 %
24.11.2021 20:26 5,0 C 4,4 C 2,8 C 86 % 1016,8 hPa 0,0 l/m 0 min 0 min 0 W/m 0,0 km/h (0 Bft) 100,00 %
24.11.2021 20:28 5,0 C 4,4 C 2,8 C 87 % 1016,8 hPa 0,0 l/m 0 min 0 min 0 W/m 0,0 km/h (0 Bft) 100,00 %
24.11.2021 20:30 5,0 C 4,4 C 2,8 C 87 % 1016,8 hPa 0,0 l/m 0 min 0 min 0 W/m 0,0 km/h (0 Bft) 100,00 %
24.11.2021 20:32 5,0 C 4,4 C 2,8 C 87 % 1016,8 hPa 0,0 l/m 0 min 0 min 0 W/m 0,0 km/h (0 Bft) 100,00 %
24.11.2021 20:34 5,0 C 4,4 C 2,8 C 86 % 1016,8 hPa 0,0 l/m 0 min 0 min 0 W/m 0,0 km/h (0 Bft) 100,00 %
24.11.2021 20:36 5,0 C 4,4 C 2,8 C 87 % 1016,8 hPa 0,0 l/m 0 min 0 min 0 W/m 0,0 km/h (0 Bft) 100,00 %
24.11.2021 20:38 5,0 C 4,4 C 2,8 C 87 % 1016,8 hPa 0,0 l/m 0 min 0 min 0 W/m 0,0 km/h (0 Bft) 100,00 %
24.11.2021 20:40 5,0 C 4,4 C 2,8 C 87 % 1016,8 hPa 0,0 l/m 0 min 0 min 0 W/m 0,0 km/h (0 Bft) 100,00 %
24.11.2021 20:42 5,0 C 4,4 C 2,8 C 87 % 1016,8 hPa 0,0 l/m 0 min 0 min 0 W/m 3,2 km/h (1 Bft) 100,00 %
24.11.2021 20:44 5,0 C 4,4 C 2,8 C 87 % 1016,8 hPa 0,0 l/m 0 min 0 min 0 W/m 0,0 km/h (0 Bft) 100,00 %
24.11.2021 20:46 5,0 C 4,4 C 2,8 C 87 % 1016,8 hPa 0,0 l/m 0 min 0 min 0 W/m 3,2 km/h (1 Bft) 100,00 %
24.11.2021 20:48 5,0 C 4,4 C 2,8 C 87 % 1016,8 hPa 0,0 l/m 0 min 0 min 0 W/m 0,0 km/h (0 Bft) 100,00 %
24.11.2021 20:50 5,0 C 4,4 C 2,8 C 87 % 1016,9 hPa 0,0 l/m 0 min 0 min 0 W/m 3,2 km/h (1 Bft) 100,00 %
24.11.2021 20:52 5,0 C 4,4 C 2,8 C 87 % 1016,8 hPa 0,0 l/m 0 min 0 min 0 W/m 3,2 km/h (1 Bft) 100,00 %
24.11.2021 20:54 5,0 C 4,4 C 3,3 C 87 % 1016,8 hPa 0,0 l/m 0 min 0 min 0 W/m 0,0 km/h (0 Bft) 100,00 %
24.11.2021 20:56 5,0 C 4,4 C 2,8 C 86 % 1016,8 hPa 0,0 l/m 0 min 0 min 0 W/m 3,2 km/h (1 Bft) 95,92 %
24.11.2021 20:58 5,0 C 4,4 C 2,8 C 87 % 1016,7 hPa 0,0 l/m 0 min 0 min 0 W/m 3,2 km/h (1 Bft) 100,00 %
24.11.2021 21:00 5,0 C 4,4 C 2,8 C 87 % 1016,7 hPa 0,0 l/m 0 min 0 min 0 W/m 0,0 km/h (0 Bft) 98,15 %
24.11.2021 21:02 5,0 C 4,4 C 2,8 C 86 % 1016,7 hPa 0,0 l/m 0 min 0 min 0 W/m 3,2 km/h (1 Bft) 100,00 %
24.11.2021 21:04 5,0 C 4,4 C 2,8 C 86 % 1016,7 hPa 0,0 l/m 0 min 0 min 0 W/m 0,0 km/h (0 Bft) 100,00 %
24.11.2021 21:06 5,0 C 4,4 C 2,8 C 86 % 1016,7 hPa 0,0 l/m 0 min 0 min 0 W/m 0,0 km/h (0 Bft) 97,87 %
24.11.2021 21:08 5,0 C 4,4 C 2,8 C 86 % 1016,7 hPa 0,0 l/m 0 min 0 min 0 W/m 3,2 km/h (1 Bft) 100,00 %
24.11.2021 21:10 5,0 C 4,4 C 2,8 C 86 % 1016,7 hPa 0,0 l/m 0 min 0 min 0 W/m 0,0 km/h (0 Bft) 47,50 %
24.11.2021 21:12 5,0 C 4,4 C 2,8 C 86 % 1016,7 hPa 0,0 l/m 0 min 0 min 0 W/m 0,0 km/h (0 Bft) 97,37 %
24.11.2021 21:14 5,0 C 4,4 C 2,8 C 86 % 1016,7 hPa 0,0 l/m 0 min 0 min 0 W/m 0,0 km/h (0 Bft) 97,96 %
24.11.2021 21:16 5,0 C 4,4 C 2,8 C 86 % 1016,7 hPa 0,0 l/m 0 min 0 min 0 W/m 3,2 km/h (1 Bft) 95,65 %
24.11.2021 21:18 5,0 C 4,4 C 2,8 C 86 % 1016,6 hPa 0,0 l/m 0 min 0 min 0 W/m 0,0 km/h (0 Bft) 94,44 %
24.11.2021 21:20 5,0 C 4,4 C 2,8 C 86 % 1016,6 hPa 0,0 l/m 0 min 0 min 0 W/m 0,0 km/h (0 Bft) 94,74 %
24.11.2021 21:22 5,0 C 4,4 C 2,8 C 86 % 1016,6 hPa 0,0 l/m 0 min 0 min 0 W/m 0,0 km/h (0 Bft) 95,92 %
24.11.2021 21:24 5,0 C 4,4 C 2,8 C 86 % 1016,6 hPa 0,0 l/m 0 min 0 min 0 W/m 0,0 km/h (0 Bft) 93,62 %
24.11.2021 21:26 5,0 C 4,4 C 2,8 C 86 % 1016,6 hPa 0,0 l/m 0 min 0 min 0 W/m 0,0 km/h (0 Bft) 94,34 %
24.11.2021 21:28 5,0 C 3,9 C 2,2 C 86 % 1016,5 hPa 0,0 l/m 0 min 0 min 0 W/m 0,0 km/h (0 Bft) 94,74 %
24.11.2021 21:30 5,0 C 3,9 C 2,2 C 86 % 1016,5 hPa 0,0 l/m 0 min 0 min 0 W/m 0,0 km/h (0 Bft) 95,92 %
24.11.2021 21:32 5,0 C 3,9 C 2,2 C 87 % 1016,5 hPa 0,0 l/m 0 min 0 min 0 W/m 0,0 km/h (0 Bft) 95,74 %
24.11.2021 21:34 5,0 C 3,9 C 2,2 C 87 % 1016,4 hPa 0,0 l/m 0 min 0 min 0 W/m 0,0 km/h (0 Bft) 96,30 %
24.11.2021 21:36 5,0 C 3,9 C 2,2 C 87 % 1016,4 hPa 0,0 l/m 0 min 0 min 0 W/m 0,0 km/h (0 Bft) 94,74 %
24.11.2021 21:38 4,9 C 3,3 C 2,2 C 87 % 1016,3 hPa 0,0 l/m 0 min 0 min 0 W/m 0,0 km/h (0 Bft) 97,87 %
24.11.2021 21:40 4,9 C 3,3 C 2,2 C 86 % 1016,3 hPa 0,0 l/m 0 min 0 min 0 W/m 0,0 km/h (0 Bft) 95,65 %
24.11.2021 21:42 4,9 C 3,3 C 1,7 C 86 % 1016,3 hPa 0,0 l/m 0 min 0 min 0 W/m 0,0 km/h (0 Bft) 95,92 %
24.11.2021 21:44 4,9 C 3,3 C 1,7 C 86 % 1016,3 hPa 0,0 l/m 0 min 0 min 0 W/m 0,0 km/h (0 Bft) 95,35 %
24.11.2021 21:46 4,8 C 3,3 C 1,7 C 86 % 1016,3 hPa 0,0 l/m 0 min 0 min 0 W/m 0,0 km/h (0 Bft) 96,00 %
24.11.2021 21:48 4,8 C 2,8 C 1,7 C 86 % 1016,2 hPa 0,0 l/m 0 min 0 min 0 W/m 0,0 km/h (0 Bft) 97,92 %
24.11.2021 21:50 4,8 C 2,8 C 1,7 C 86 % 1016,2 hPa 0,0 l/m 0 min 0 min 0 W/m 0,0 km/h (0 Bft) 97,83 %
24.11.2021 21:52 4,8 C 2,8 C 1,1 C 86 % 1016,2 hPa 0,0 l/m 0 min 0 min 0 W/m 0,0 km/h (0 Bft) 91,49 %
24.11.2021 21:54 4,7 C 2,8 C 1,1 C 86 % 1016,1 hPa 0,0 l/m 0 min 0 min 0 W/m 0,0 km/h (0 Bft) 97,67 %
24.11.2021 21:56 4,6 C 2,8 C 1,1 C 86 % 1016,2 hPa 0,0 l/m 0 min 0 min 0 W/m 0,0 km/h (0 Bft) 96,00 %
24.11.2021 21:58 4,6 C 2,2 C 1,1 C 86 % 1016,1 hPa 0,0 l/m 0 min 0 min 0 W/m 0,0 km/h (0 Bft) 100,00 %
24.11.2021 22:00 4,5 C 2,2 C 1,1 C 86 % 1016,1 hPa 0,0 l/m 0 min 0 min 0 W/m 0,0 km/h (0 Bft) 100,00 %
24.11.2021 22:02 4,5 C 2,2 C 1,1 C 86 % 1016,1 hPa 0,0 l/m 0 min 0 min 0 W/m 0,0 km/h (0 Bft) 95,35 %
24.11.2021 22:04 4,4 C 2,2 C 0,6 C 86 % 1015,9 hPa 0,0 l/m 0 min 0 min 0 W/m 0,0 km/h (0 Bft) 100,00 %
24.11.2021 22:06 4,4 C 2,2 C 0,6 C 86 % 1015,9 hPa 0,0 l/m 0 min 0 min 0 W/m 0,0 km/h (0 Bft) 100,00 %
24.11.2021 22:08 4,3 C 2,2 C 0,6 C 86 % 1015,9 hPa 0,0 l/m 0 min 0 min 0 W/m 0,0 km/h (0 Bft) 95,45 %
24.11.2021 22:10 4,2 C 1,7 C 0,6 C 86 % 1015,9 hPa 0,0 l/m 0 min 0 min 0 W/m 0,0 km/h (0 Bft) 98,00 %
24.11.2021 22:12 4,1 C 1,7 C 0,6 C 86 % 1015,9 hPa 0,0 l/m 0 min 0 min 0 W/m 0,0 km/h (0 Bft) 97,87 %
24.11.2021 22:14 4,1 C 1,7 C 0,6 C 86 % 1015,9 hPa 0,0 l/m 0 min 0 min 0 W/m 0,0 km/h (0 Bft) 97,67 %
24.11.2021 22:16 4,0 C 1,7 C 0,6 C 86 % 1015,8 hPa 0,0 l/m 0 min 0 min 0 W/m 0,0 km/h (0 Bft) 96,00 %
24.11.2021 22:18 4,0 C 1,7 C 0,6 C 86 % 1015,9 hPa 0,0 l/m 0 min 0 min 0 W/m 0,0 km/h (0 Bft) 97,87 %
24.11.2021 22:20 3,9 C 1,7 C 0,6 C 86 % 1015,9 hPa 0,0 l/m 0 min 0 min 0 W/m 0,0 km/h (0 Bft) 97,73 %
24.11.2021 22:22 3,8 C 1,7 C 0,6 C 87 % 1015,9 hPa 0,0 l/m 0 min 0 min 0 W/m 0,0 km/h (0 Bft) 98,00 %
24.11.2021 22:24 3,8 C 1,7 C 0,0 C 86 % 1015,9 hPa 0,0 l/m 0 min 0 min 0 W/m 0,0 km/h (0 Bft) 97,87 %
24.11.2021 22:26 3,7 C 1,7 C 0,0 C 87 % 1015,8 hPa 0,0 l/m 0 min 0 min 0 W/m 0,0 km/h (0 Bft) 97,67 %
24.11.2021 22:28 3,6 C 1,7 C 0,0 C 87 % 1015,8 hPa 0,0 l/m 0 min 0 min 0 W/m 0,0 km/h (0 Bft) 98,00 %
24.11.2021 22:30 3,5 C 1,7 C 0,0 C 87 % 1015,7 hPa 0,0 l/m 0 min 0 min 0 W/m 0,0 km/h (0 Bft) 97,87 %
24.11.2021 22:32 3,5 C 1,1 C 0,0 C 87 % 1015,7 hPa 0,0 l/m 0 min 0 min 0 W/m 0,0 km/h (0 Bft) 97,73 %
24.11.2021 22:34 3,4 C 1,1 C 0,0 C 87 % 1015,7 hPa 0,0 l/m 0 min 0 min 0 W/m 0,0 km/h (0 Bft) 96,00 %
24.11.2021 22:36 3,4 C 1,1 C 0,0 C 87 % 1015,6 hPa 0,0 l/m 0 min 0 min 0 W/m 0,0 km/h (0 Bft) 97,87 %
24.11.2021 22:38 3,3 C 1,1 C 0,0 C 87 % 1015,6 hPa 0,0 l/m 0 min 0 min 0 W/m 0,0 km/h (0 Bft) 97,83 %
24.11.2021 22:40 3,3 C 1,1 C 0,0 C 88 % 1015,6 hPa 0,0 l/m 0 min 0 min 0 W/m 0,0 km/h (0 Bft) 97,87 %
24.11.2021 22:42 3,2 C 1,1 C 0,0 C 87 % 1015,6 hPa 0,0 l/m 0 min 0 min 0 W/m 0,0 km/h (0 Bft) 97,73 %
24.11.2021 22:44 3,1 C 1,1 C 0,0 C 88 % 1015,6 hPa 0,0 l/m 0 min 0 min 0 W/m 0,0 km/h (0 Bft) 96,00 %
24.11.2021 22:46 3,1 C 1,1 C 0,0 C 88 % 1015,6 hPa 0,0 l/m 0 min 0 min 0 W/m 0,0 km/h (0 Bft) 97,87 %
24.11.2021 22:48 3,0 C 1,1 C 0,0 C 88 % 1015,6 hPa 0,0 l/m 0 min 0 min 0 W/m 0,0 km/h (0 Bft) 97,87 %
24.11.2021 22:50 3,0 C 1,1 C 0,0 C 88 % 1015,6 hPa 0,0 l/m 0 min 0 min 0 W/m 0,0 km/h (0 Bft) 100,00 %
24.11.2021 22:55 2,9 C 1,1 C 0,0 C 89 % 1015,5 hPa 0,0 l/m 0 min 0 min 0 W/m 0,0 km/h (0 Bft) 98,15 %
24.11.2021 22:56 2,9 C 1,1 C 0,0 C 88 % 1015,5 hPa 0,0 l/m 0 min 0 min 0 W/m 0,0 km/h (0 Bft) 91,67 %
24.11.2021 22:58 2,8 C 1,1 C 0,0 C 89 % 1015,6 hPa 0,0 l/m 0 min 0 min 0 W/m 0,0 km/h (0 Bft) 95,74 %
24.11.2021 23:00 2,8 C 1,1 C 0,0 C 89 % 1015,5 hPa 0,0 l/m 0 min 0 min 0 W/m 0,0 km/h (0 Bft) 95,65 %
24.11.2021 23:02 2,7 C 1,1 C 0,0 C 89 % 1015,5 hPa 0,0 l/m 0 min 0 min 0 W/m 0,0 km/h (0 Bft) 93,62 %
24.11.2021 23:04 2,7 C 1,1 C 0,0 C 89 % 1015,4 hPa 0,0 l/m 0 min 0 min 0 W/m 0,0 km/h (0 Bft) 95,74 %
24.11.2021 23:06 2,6 C 1,1 C 0,0 C 89 % 1015,4 hPa 0,0 l/m 0 min 0 min 0 W/m 0,0 km/h (0 Bft) 93,62 %
24.11.2021 23:08 2,6 C 0,6 C -0,6 C 89 % 1015,4 hPa 0,0 l/m 0 min 0 min 0 W/m 0,0 km/h (0 Bft) 93,62 %
24.11.2021 23:10 2,5 C 0,6 C -0,6 C 89 % 1015,4 hPa 0,0 l/m 0 min 0 min 0 W/m 0,0 km/h (0 Bft) 95,74 %
24.11.2021 23:12 2,5 C 0,6 C -0,6 C 89 % 1015,3 hPa 0,0 l/m 0 min 0 min 0 W/m 0,0 km/h (0 Bft) 95,65 %
24.11.2021 23:14 2,5 C 0,6 C -0,6 C 89 % 1015,4 hPa 0,0 l/m 0 min 0 min 0 W/m 0,0 km/h (0 Bft) 93,62 %
24.11.2021 23:16 2,4 C 0,6 C -0,6 C 89 % 1015,3 hPa 0,0 l/m 0 min 0 min 0 W/m 0,0 km/h (0 Bft) 93,62 %
24.11.2021 23:18 2,4 C 0,6 C -0,6 C 89 % 1015,2 hPa 0,0 l/m 0 min 0 min 0 W/m 0,0 km/h (0 Bft) 93,88 %
24.11.2021 23:20 2,3 C 0,6 C -0,6 C 89 % 1015,2 hPa 0,0 l/m 0 min 0 min 0 W/m 0,0 km/h (0 Bft) 95,74 %
24.11.2021 23:22 2,3 C 0,6 C -0,6 C 89 % 1015,2 hPa 0,0 l/m 0 min 0 min 0 W/m 0,0 km/h (0 Bft) 93,48 %
24.11.2021 23:24 2,3 C 0,6 C -0,6 C 89 % 1015,2 hPa 0,0 l/m 0 min 0 min 0 W/m 0,0 km/h (0 Bft) 93,62 %
24.11.2021 23:26 2,2 C 0,6 C -0,6 C 89 % 1015,1 hPa 0,0 l/m 0 min 0 min 0 W/m 0,0 km/h (0 Bft) 97,87 %
24.11.2021 23:28 2,1 C 0,6 C -0,6 C 89 % 1015,2 hPa 0,0 l/m 0 min 0 min 0 W/m 0,0 km/h (0 Bft) 97,14 %
24.11.2021 23:30 2,1 C 0,6 C -0,6 C 90 % 1015,1 hPa 0,0 l/m 0 min 0 min 0 W/m 0,0 km/h (0 Bft) 95,74 %
24.11.2021 23:32 2,1 C 0,6 C -0,6 C 90 % 1015,2 hPa 0,0 l/m 0 min 0 min 0 W/m 0,0 km/h (0 Bft) 97,87 %
24.11.2021 23:34 2,0 C 0,6 C -0,6 C 90 % 1015,2 hPa 0,0 l/m 0 min 0 min 0 W/m 0,0 km/h (0 Bft) 96,36 %
24.11.2021 23:36 2,0 C 0,6 C -0,6 C 90 % 1015,2 hPa 0,0 l/m 0 min 0 min 0 W/m 0,0 km/h (0 Bft) 98,00 %
24.11.2021 23:38 2,0 C 0,6 C -0,6 C 90 % 1015,2 hPa 0,0 l/m 0 min 0 min 0 W/m 0,0 km/h (0 Bft) 97,14 %
24.11.2021 23:40 1,9 C 0,6 C -0,6 C 90 % 1015,1 hPa 0,0 l/m 0 min 0 min 0 W/m 0,0 km/h (0 Bft) 95,74 %
24.11.2021 23:42 1,9 C 0,6 C -0,6 C 90 % 1015,1 hPa 0,0 l/m 0 min 0 min 0 W/m 0,0 km/h (0 Bft) 52,17 %
24.11.2021 23:44 1,9 C 0,6 C -0,6 C 90 % 1015,1 hPa 0,0 l/m 0 min 0 min 0 W/m 0,0 km/h (0 Bft) 94,64 %
24.11.2021 23:46 1,8 C 0,6 C -0,6 C 90 % 1015,2 hPa 0,0 l/m 0 min 0 min 0 W/m 0,0 km/h (0 Bft) 100,00 %
24.11.2021 23:48 1,8 C 0,6 C -0,6 C 90 % 1015,1 hPa 0,0 l/m 0 min 0 min 0 W/m 0,0 km/h (0 Bft) 97,22 %
24.11.2021 23:50 1,8 C 0,6 C -0,6 C 90 % 1015,1 hPa 0,0 l/m 0 min 0 min 0 W/m 0,0 km/h (0 Bft) 100,00 %
24.11.2021 23:52 1,8 C 0,6 C -0,6 C 91 % 1015,1 hPa 0,0 l/m 0 min 0 min 0 W/m 0,0 km/h (0 Bft) 100,00 %
24.11.2021 23:54 1,8 C 0,6 C -0,6 C 91 % 1015,1 hPa 0,0 l/m 0 min 0 min 0 W/m 0,0 km/h (0 Bft) 100,00 %
24.11.2021 23:56 1,8 C 0,6 C -0,6 C 91 % 1015,0 hPa 0,0 l/m 0 min 0 min 0 W/m 0,0 km/h (0 Bft) 100,00 %
24.11.2021 23:58 1,8 C 1,1 C -0,6 C 91 % 1015,0 hPa 0,0 l/m 0 min 0 min 0 W/m 3,2 km/h (1 Bft) 97,96 %
_ Min-Zeit 23:46 23:08 23:08 17:14 23:56 - - - - 00:00 16:50
Minimum _ 1,8 C 0,6 C -0,6 C 83 % 1015,0 hPa - - - - 0,0 km/h (0 Bft) 44,74 %
_ Max-Zeit 13:38 13:18 13:36 05:02 00:00 00:00 00:00 00:00 12:02 02:30 00:00
Maximum _ 6,9 C 7,8 C 6,7 C 99 % 1029,2 hPa 0,0 l/m 0 min 0 min 132 W/m 12,9 km/h
S-SO (3 Bft)
100,00 %
Durchschnitt _ 5,5 C 5,1 C 4,2 C 94 % 1022,4 hPa #0,0 l/m #0 min. #0 min. 62 W/m 2,4 km/h (1 Bft) 97,11 %
© 2021 W. Hausmann